DLH432 EDDF-KORD
Flight info
| Callsign | DLH432 |
|---|---|
| Flight time | 8h 56m |
| Altitude | 35000 |
| Route | MARUN2D/07C MARUN Y150 TOLGI DCT OMIMA/N0465F360 DCT VAXIT DCT ARTEX DCT LAMRO DCT ATSIX/M082F380 DCT 63N020W 64N030W 64N040W 63N050W DCT MAXAR DCT MUSLO/N0473F380 DCT 55N074W/N0475F400 DCT VETRO DCT SSM WYNDE3 |
| Aircraft | A346/H-SDE2E3FGHIJ3J4J5M1RWXY/LB1D1 |
Departure
| Time | 2026-04-07 16:01 |
|---|---|
| Airport | Frankfurt Main Airport (EDDF) |
Arrival
| Time | 2026-04-08 00:57 |
|---|---|
| Airport | Chicago O'Hare International Airport (KORD) |
| Time | Latitude | Longitude | Altitude | Speed | Heading |
|---|---|---|---|---|---|
| 2026-04-07 14:45 | 50.04641 | 8.55945 | 364 ft | 0 kts | 340° |
| 2026-04-07 15:46 | 50.04627 | 8.55953 | 368 ft | 4 kts | 339° |
| 2026-04-07 15:46 | 50.04603 | 8.55967 | 368 ft | 3 kts | 340° |
| 2026-04-07 15:46 | 50.04582 | 8.55984 | 368 ft | 4 kts | 315° |
| 2026-04-07 15:47 | 50.04572 | 8.56009 | 370 ft | 4 kts | 280° |
| 2026-04-07 15:47 | 50.04573 | 8.56045 | 368 ft | 4 kts | 255° |
| 2026-04-07 15:47 | 50.04582 | 8.56084 | 368 ft | 4 kts | 249° |
| 2026-04-07 15:47 | 50.04584 | 8.56094 | 369 ft | 0 kts | 250° |
| 2026-04-07 15:51 | 50.04581 | 8.56079 | 368 ft | 3 kts | 250° |
| 2026-04-07 15:51 | 50.04570 | 8.56033 | 370 ft | 6 kts | 250° |
| 2026-04-07 15:52 | 50.04545 | 8.55974 | 371 ft | 7 kts | 212° |
| 2026-04-07 15:52 | 50.04490 | 8.55941 | 370 ft | 9 kts | 200° |
| 2026-04-07 15:52 | 50.04421 | 8.55910 | 370 ft | 11 kts | 191° |
| 2026-04-07 15:52 | 50.04342 | 8.55930 | 367 ft | 8 kts | 160° |
| 2026-04-07 15:53 | 50.04300 | 8.55958 | 370 ft | 8 kts | 152° |
| 2026-04-07 15:53 | 50.04257 | 8.55948 | 368 ft | 8 kts | 208° |
| 2026-04-07 15:53 | 50.04197 | 8.55918 | 367 ft | 10 kts | 170° |
| 2026-04-07 15:53 | 50.04118 | 8.55956 | 365 ft | 11 kts | 164° |
| 2026-04-07 15:54 | 50.04055 | 8.55948 | 367 ft | 10 kts | 231° |
| 2026-04-07 15:54 | 50.04020 | 8.55831 | 363 ft | 13 kts | 250° |
| 2026-04-07 15:54 | 50.03984 | 8.55679 | 361 ft | 16 kts | 250° |
| 2026-04-07 15:54 | 50.03943 | 8.55506 | 359 ft | 17 kts | 250° |
| 2026-04-07 15:55 | 50.03898 | 8.55320 | 361 ft | 20 kts | 249° |
| 2026-04-07 15:55 | 50.03847 | 8.55110 | 361 ft | 22 kts | 249° |
| 2026-04-07 15:55 | 50.03791 | 8.54878 | 362 ft | 24 kts | 250° |
| 2026-04-07 15:55 | 50.03739 | 8.54654 | 360 ft | 22 kts | 250° |
| 2026-04-07 15:56 | 50.03693 | 8.54465 | 355 ft | 10 kts | 249° |
| 2026-04-07 15:56 | 50.03664 | 8.54346 | 356 ft | 13 kts | 246° |
| 2026-04-07 15:56 | 50.03601 | 8.54316 | 357 ft | 4 kts | 160° |
| 2026-04-07 15:56 | 50.03598 | 8.54318 | 357 ft | 0 kts | 160° |
| 2026-04-07 15:58 | 50.03583 | 8.54326 | 355 ft | 4 kts | 160° |
| 2026-04-07 15:58 | 50.03549 | 8.54345 | 357 ft | 6 kts | 160° |
| 2026-04-07 15:58 | 50.03524 | 8.54358 | 357 ft | 3 kts | 160° |
| 2026-04-07 15:59 | 50.03499 | 8.54375 | 359 ft | 4 kts | 139° |
| 2026-04-07 15:59 | 50.03494 | 8.54415 | 359 ft | 5 kts | 81° |
| 2026-04-07 15:59 | 50.03498 | 8.54440 | 357 ft | 0 kts | 72° |
| 2026-04-07 15:59 | 50.03499 | 8.54448 | 356 ft | 2 kts | 72° |
| 2026-04-07 16:00 | 50.03506 | 8.54481 | 360 ft | 8 kts | 70° |
| 2026-04-07 16:00 | 50.03587 | 8.54819 | 355 ft | 63 kts | 69° |
| 2026-04-07 16:00 | 50.03813 | 8.55761 | 365 ft | 118 kts | 70° |
| 2026-04-07 16:00 | 50.04154 | 8.57191 | 376 ft | 162 kts | 70° |
| 2026-04-07 16:01 | 50.04570 | 8.58958 | 594 ft | 180 kts | 68° |
| 2026-04-07 16:01 | 50.05015 | 8.60824 | 1169 ft | 181 kts | 68° |
| 2026-04-07 16:01 | 50.05461 | 8.62715 | 1701 ft | 188 kts | 67° |
| 2026-04-07 16:01 | 50.05910 | 8.64605 | 2207 ft | 189 kts | 68° |
| 2026-04-07 16:02 | 50.06382 | 8.66608 | 2622 ft | 199 kts | 68° |
| 2026-04-07 16:02 | 50.06845 | 8.68732 | 2917 ft | 213 kts | 70° |
| 2026-04-07 16:02 | 50.07532 | 8.70857 | 3262 ft | 224 kts | 45° |
| 2026-04-07 16:02 | 50.08834 | 8.72213 | 3776 ft | 232 kts | 25° |
| 2026-04-07 16:03 | 50.10375 | 8.73251 | 4151 ft | 248 kts | 23° |
| 2026-04-07 16:03 | 50.11992 | 8.74306 | 4653 ft | 258 kts | 23° |
| 2026-04-07 16:03 | 50.13655 | 8.75400 | 5349 ft | 260 kts | 23° |
| 2026-04-07 16:03 | 50.15335 | 8.76523 | 6084 ft | 262 kts | 23° |
| 2026-04-07 16:04 | 50.17004 | 8.77647 | 6802 ft | 264 kts | 22° |
| 2026-04-07 16:04 | 50.18716 | 8.78804 | 7497 ft | 267 kts | 22° |
| 2026-04-07 16:04 | 50.20442 | 8.79972 | 8225 ft | 270 kts | 22° |
| 2026-04-07 16:04 | 50.21583 | 8.80745 | 8712 ft | 271 kts | 22° |
| 2026-04-07 16:05 | 50.23934 | 8.82228 | 9668 ft | 275 kts | 17° |
| 2026-04-07 16:05 | 50.25767 | 8.83167 | 10375 ft | 278 kts | 16° |
| 2026-04-07 16:05 | 50.26997 | 8.83777 | 10750 ft | 282 kts | 16° |
| 2026-04-07 16:05 | 50.28932 | 8.84741 | 11113 ft | 298 kts | 16° |
| 2026-04-07 16:06 | 50.30971 | 8.85771 | 11404 ft | 314 kts | 17° |
| 2026-04-07 16:06 | 50.33125 | 8.86872 | 11710 ft | 331 kts | 17° |
| 2026-04-07 16:06 | 50.35388 | 8.88038 | 12004 ft | 347 kts | 17° |
| 2026-04-07 16:06 | 50.37715 | 8.89244 | 12293 ft | 362 kts | 17° |
| 2026-04-07 16:07 | 50.40155 | 8.90513 | 12764 ft | 371 kts | 17° |
| 2026-04-07 16:07 | 50.42639 | 8.91809 | 13505 ft | 372 kts | 17° |
| 2026-04-07 16:07 | 50.45108 | 8.93099 | 14230 ft | 374 kts | 17° |
| 2026-04-07 16:07 | 50.47566 | 8.94386 | 14839 ft | 378 kts | 17° |
| 2026-04-07 16:08 | 50.50071 | 8.95699 | 15446 ft | 381 kts | 17° |
| 2026-04-07 16:08 | 50.52600 | 8.97025 | 16052 ft | 384 kts | 17° |
| 2026-04-07 16:08 | 50.55145 | 8.98361 | 16643 ft | 387 kts | 17° |
| 2026-04-07 16:08 | 50.57718 | 8.99713 | 17260 ft | 390 kts | 17° |
| 2026-04-07 16:09 | 50.60310 | 9.01077 | 17855 ft | 394 kts | 17° |
| 2026-04-07 16:09 | 50.62897 | 9.02439 | 18424 ft | 397 kts | 17° |
| 2026-04-07 16:09 | 50.65523 | 9.03823 | 18966 ft | 400 kts | 16° |
| 2026-04-07 16:09 | 50.68176 | 9.05224 | 19470 ft | 403 kts | 16° |
| 2026-04-07 16:10 | 50.70846 | 9.06636 | 19978 ft | 406 kts | 16° |
| 2026-04-07 16:10 | 50.73545 | 9.08064 | 20486 ft | 409 kts | 16° |
| 2026-04-07 16:10 | 50.76258 | 9.09501 | 21008 ft | 411 kts | 16° |
| 2026-04-07 16:10 | 50.78987 | 9.10948 | 21495 ft | 414 kts | 16° |
| 2026-04-07 16:11 | 50.81703 | 9.12392 | 21979 ft | 417 kts | 16° |
| 2026-04-07 16:11 | 50.84474 | 9.13866 | 22468 ft | 420 kts | 16° |
| 2026-04-07 16:11 | 50.87261 | 9.15350 | 22955 ft | 423 kts | 16° |
| 2026-04-07 16:11 | 50.90065 | 9.16846 | 23422 ft | 426 kts | 16° |
| 2026-04-07 16:12 | 50.92893 | 9.18356 | 23887 ft | 429 kts | 16° |
| 2026-04-07 16:12 | 50.95705 | 9.19860 | 24285 ft | 432 kts | 16° |
| 2026-04-07 16:12 | 50.98563 | 9.21391 | 24678 ft | 434 kts | 16° |
| 2026-04-07 16:12 | 51.01460 | 9.22945 | 25072 ft | 437 kts | 16° |
| 2026-04-07 16:13 | 51.04344 | 9.24495 | 25468 ft | 439 kts | 16° |
| 2026-04-07 16:13 | 51.07251 | 9.25819 | 25801 ft | 439 kts | 6° |
| 2026-04-07 16:13 | 51.10292 | 9.25677 | 26095 ft | 437 kts | 347° |
| 2026-04-07 16:13 | 51.13168 | 9.24127 | 26560 ft | 435 kts | 337° |
| 2026-04-07 16:14 | 51.15975 | 9.22290 | 26983 ft | 437 kts | 337° |
| 2026-04-07 16:14 | 51.18812 | 9.20445 | 27300 ft | 441 kts | 337° |
| 2026-04-07 16:14 | 51.21650 | 9.18627 | 27660 ft | 443 kts | 338° |
| 2026-04-07 16:14 | 51.24485 | 9.16832 | 28029 ft | 445 kts | 338° |
| 2026-04-07 16:15 | 51.27422 | 9.14986 | 28477 ft | 445 kts | 338° |
| 2026-04-07 16:15 | 51.30315 | 9.13176 | 29043 ft | 443 kts | 338° |
| 2026-04-07 16:15 | 51.33184 | 9.11385 | 29628 ft | 441 kts | 338° |
| 2026-04-07 16:15 | 51.36042 | 9.09602 | 30152 ft | 439 kts | 338° |
| 2026-04-07 16:16 | 51.38889 | 9.07826 | 30617 ft | 438 kts | 338° |
| 2026-04-07 16:16 | 51.41698 | 9.06074 | 31045 ft | 437 kts | 338° |
| 2026-04-07 16:16 | 51.44550 | 9.04294 | 31476 ft | 436 kts | 338° |
| 2026-04-07 16:16 | 51.47403 | 9.02510 | 31883 ft | 436 kts | 337° |
| 2026-04-07 16:17 | 51.50189 | 9.00766 | 32278 ft | 435 kts | 337° |
| 2026-04-07 16:17 | 51.53058 | 8.98968 | 32701 ft | 434 kts | 337° |
| 2026-04-07 16:17 | 51.55868 | 8.97204 | 33107 ft | 433 kts | 337° |
| 2026-04-07 16:17 | 51.58671 | 8.95443 | 33493 ft | 432 kts | 337° |
| 2026-04-07 16:18 | 51.61479 | 8.93676 | 33866 ft | 432 kts | 337° |
| 2026-04-07 16:18 | 51.64285 | 8.91907 | 34174 ft | 433 kts | 337° |
| 2026-04-07 16:18 | 51.67105 | 8.90126 | 34439 ft | 434 kts | 336° |
| 2026-04-07 16:18 | 51.69922 | 8.88345 | 34671 ft | 435 kts | 336° |
| 2026-04-07 16:19 | 51.72756 | 8.86550 | 34807 ft | 439 kts | 336° |
| 2026-04-07 16:19 | 51.75621 | 8.84734 | 34946 ft | 442 kts | 336° |
| 2026-04-07 16:19 | 51.78451 | 8.82937 | 35259 ft | 440 kts | 336° |
| 2026-04-07 16:19 | 51.81304 | 8.81126 | 35333 ft | 438 kts | 336° |
| 2026-04-07 16:20 | 51.86958 | 8.77527 | 35345 ft | 437 kts | 336° |
| 2026-04-07 16:20 | 51.92619 | 8.73913 | 35354 ft | 437 kts | 336° |
| 2026-04-07 16:21 | 51.98293 | 8.70281 | 35356 ft | 436 kts | 336° |
| 2026-04-07 16:21 | 52.03955 | 8.66646 | 35341 ft | 436 kts | 336° |
| 2026-04-07 16:22 | 52.09574 | 8.63031 | 35349 ft | 436 kts | 336° |
| 2026-04-07 16:22 | 52.15190 | 8.59407 | 35354 ft | 436 kts | 336° |
| 2026-04-07 16:23 | 52.20838 | 8.55752 | 35355 ft | 436 kts | 336° |
| 2026-04-07 16:23 | 52.26492 | 8.52084 | 35354 ft | 436 kts | 336° |
| 2026-04-07 16:24 | 52.32094 | 8.48439 | 35349 ft | 435 kts | 336° |
| 2026-04-07 16:24 | 52.37734 | 8.44760 | 35352 ft | 435 kts | 336° |
| 2026-04-07 16:25 | 52.43365 | 8.41076 | 35356 ft | 435 kts | 336° |
| 2026-04-07 16:25 | 52.48979 | 8.37393 | 35358 ft | 435 kts | 336° |
| 2026-04-07 16:26 | 52.54602 | 8.33694 | 35351 ft | 435 kts | 336° |
| 2026-04-07 16:26 | 52.60202 | 8.30000 | 35354 ft | 435 kts | 336° |
| 2026-04-07 16:27 | 52.65816 | 8.26287 | 35360 ft | 434 kts | 336° |
| 2026-04-07 16:27 | 52.71463 | 8.22541 | 35363 ft | 434 kts | 336° |
| 2026-04-07 16:28 | 52.77047 | 8.18826 | 35364 ft | 434 kts | 336° |
| 2026-04-07 16:28 | 52.82692 | 8.15061 | 35368 ft | 434 kts | 336° |
| 2026-04-07 16:29 | 52.88265 | 8.11333 | 35360 ft | 434 kts | 336° |
| 2026-04-07 16:29 | 52.93894 | 8.07558 | 35369 ft | 434 kts | 336° |
| 2026-04-07 16:30 | 52.99458 | 8.03815 | 35369 ft | 433 kts | 336° |
| 2026-04-07 16:30 | 53.05065 | 8.00034 | 35372 ft | 433 kts | 336° |
| 2026-04-07 16:31 | 53.10664 | 7.96246 | 35374 ft | 433 kts | 336° |
| 2026-04-07 16:31 | 53.16256 | 7.92453 | 35378 ft | 433 kts | 336° |
| 2026-04-07 16:32 | 53.21813 | 7.88674 | 35378 ft | 433 kts | 335° |
| 2026-04-07 16:32 | 53.27405 | 7.84858 | 35383 ft | 433 kts | 335° |
| 2026-04-07 16:33 | 53.32982 | 7.81044 | 35387 ft | 432 kts | 335° |
| 2026-04-07 16:33 | 53.38525 | 7.77241 | 35390 ft | 432 kts | 335° |
| 2026-04-07 16:34 | 53.44095 | 7.73409 | 35394 ft | 432 kts | 335° |
| 2026-04-07 16:34 | 53.49674 | 7.69560 | 35399 ft | 432 kts | 335° |
| 2026-04-07 16:35 | 53.55213 | 7.65728 | 35392 ft | 431 kts | 335° |
| 2026-04-07 16:35 | 53.60774 | 7.61869 | 35401 ft | 431 kts | 335° |
| 2026-04-07 16:36 | 53.66306 | 7.58019 | 35397 ft | 437 kts | 335° |
| 2026-04-07 16:36 | 53.71971 | 7.54064 | 35398 ft | 441 kts | 335° |
| 2026-04-07 16:37 | 53.77685 | 7.50066 | 35391 ft | 441 kts | 335° |
| 2026-04-07 16:37 | 53.83360 | 7.46083 | 35394 ft | 441 kts | 335° |
| 2026-04-07 16:38 | 53.88994 | 7.42117 | 35396 ft | 440 kts | 335° |
| 2026-04-07 16:38 | 53.94632 | 7.38136 | 35410 ft | 440 kts | 335° |
| 2026-04-07 16:39 | 54.00311 | 7.34115 | 35402 ft | 440 kts | 335° |
| 2026-04-07 16:39 | 54.05978 | 7.30090 | 35409 ft | 440 kts | 335° |
| 2026-04-07 16:40 | 54.11623 | 7.26068 | 35410 ft | 439 kts | 335° |
| 2026-04-07 16:40 | 54.17272 | 7.22033 | 35409 ft | 439 kts | 335° |
| 2026-04-07 16:41 | 54.22914 | 7.17990 | 35412 ft | 439 kts | 335° |
| 2026-04-07 16:41 | 54.28528 | 7.13955 | 35412 ft | 439 kts | 335° |
| 2026-04-07 16:42 | 54.34160 | 7.09895 | 35413 ft | 438 kts | 335° |
| 2026-04-07 16:42 | 54.39760 | 7.05846 | 35412 ft | 438 kts | 335° |
| 2026-04-07 16:43 | 54.45381 | 7.01769 | 35411 ft | 438 kts | 334° |
| 2026-04-07 16:43 | 54.51031 | 6.97660 | 35412 ft | 438 kts | 334° |
| 2026-04-07 16:44 | 54.56610 | 6.93590 | 35410 ft | 437 kts | 334° |
| 2026-04-07 16:44 | 54.62190 | 6.89508 | 35415 ft | 437 kts | 334° |
| 2026-04-07 16:45 | 54.67800 | 6.85391 | 35411 ft | 437 kts | 334° |
| 2026-04-07 16:45 | 54.73405 | 6.81266 | 35413 ft | 437 kts | 334° |
| 2026-04-07 16:46 | 54.79019 | 6.77122 | 35466 ft | 439 kts | 334° |
| 2026-04-07 16:46 | 54.81830 | 6.75042 | 35768 ft | 438 kts | 334° |
| 2026-04-07 16:46 | 54.84601 | 6.72991 | 36125 ft | 435 kts | 334° |
| 2026-04-07 16:47 | 54.87383 | 6.70927 | 36405 ft | 434 kts | 334° |
| 2026-04-07 16:47 | 54.90168 | 6.68859 | 36402 ft | 433 kts | 334° |
| 2026-04-07 16:47 | 54.95711 | 6.64729 | 36411 ft | 433 kts | 334° |
| 2026-04-07 16:48 | 55.01139 | 6.60277 | 36413 ft | 431 kts | 329° |
| 2026-04-07 16:49 | 55.08094 | 6.53384 | 36418 ft | 430 kts | 328° |
| 2026-04-07 16:49 | 55.13254 | 6.48159 | 36417 ft | 430 kts | 328° |
| 2026-04-07 16:50 | 55.18454 | 6.42886 | 36407 ft | 430 kts | 328° |
| 2026-04-07 16:50 | 55.23642 | 6.37615 | 36410 ft | 430 kts | 328° |
| 2026-04-07 16:51 | 55.28787 | 6.32372 | 36414 ft | 429 kts | 328° |
| 2026-04-07 16:51 | 55.33960 | 6.27086 | 36415 ft | 429 kts | 328° |
| 2026-04-07 16:52 | 55.39131 | 6.21787 | 36417 ft | 429 kts | 328° |
| 2026-04-07 16:52 | 55.44303 | 6.16469 | 36415 ft | 429 kts | 327° |
| 2026-04-07 16:53 | 55.49441 | 6.11171 | 36421 ft | 429 kts | 327° |
| 2026-04-07 16:53 | 55.54601 | 6.05834 | 36415 ft | 429 kts | 327° |
| 2026-04-07 16:54 | 55.59759 | 6.00482 | 36416 ft | 429 kts | 327° |
| 2026-04-07 16:54 | 55.64896 | 5.95137 | 36416 ft | 429 kts | 327° |
| 2026-04-07 16:55 | 55.70039 | 5.89768 | 36420 ft | 428 kts | 327° |
| 2026-04-07 16:55 | 55.75181 | 5.84384 | 36418 ft | 428 kts | 327° |
| 2026-04-07 16:56 | 55.80298 | 5.79008 | 36422 ft | 428 kts | 327° |
| 2026-04-07 16:56 | 55.85433 | 5.73598 | 36417 ft | 427 kts | 327° |
| 2026-04-07 16:57 | 55.90563 | 5.68176 | 36422 ft | 427 kts | 327° |
| 2026-04-07 16:57 | 55.95645 | 5.62789 | 36417 ft | 427 kts | 327° |
| 2026-04-07 16:58 | 56.00769 | 5.57339 | 36417 ft | 426 kts | 327° |
| 2026-04-07 16:58 | 56.05882 | 5.51884 | 36421 ft | 426 kts | 327° |
| 2026-04-07 16:59 | 56.10962 | 5.46448 | 36423 ft | 426 kts | 327° |
| 2026-04-07 16:59 | 56.16077 | 5.40957 | 36416 ft | 425 kts | 327° |
| 2026-04-07 17:00 | 56.21139 | 5.35506 | 36427 ft | 425 kts | 327° |
| 2026-04-07 17:00 | 56.26182 | 5.30059 | 36421 ft | 425 kts | 327° |
| 2026-04-07 17:01 | 56.31258 | 5.24561 | 36420 ft | 424 kts | 326° |
| 2026-04-07 17:01 | 56.36321 | 5.19061 | 36419 ft | 424 kts | 326° |
| 2026-04-07 17:02 | 56.41345 | 5.13582 | 36420 ft | 423 kts | 326° |
| 2026-04-07 17:02 | 56.46356 | 5.07929 | 36420 ft | 422 kts | 323° |
| 2026-04-07 17:03 | 56.50976 | 5.01371 | 36420 ft | 420 kts | 317° |
| 2026-04-07 17:03 | 56.55087 | 4.93904 | 36418 ft | 419 kts | 310° |
| 2026-04-07 17:04 | 56.58689 | 4.85541 | 36415 ft | 420 kts | 304° |
| 2026-04-07 17:04 | 56.61857 | 4.76656 | 36411 ft | 420 kts | 303° |
| 2026-04-07 17:05 | 56.64987 | 4.67665 | 36409 ft | 421 kts | 302° |
| 2026-04-07 17:05 | 56.68102 | 4.58674 | 36411 ft | 421 kts | 302° |
| 2026-04-07 17:06 | 56.71226 | 4.49624 | 36408 ft | 421 kts | 302° |
| 2026-04-07 17:06 | 56.74351 | 4.40533 | 36408 ft | 422 kts | 302° |
| 2026-04-07 17:07 | 56.77451 | 4.31486 | 36406 ft | 422 kts | 302° |
| 2026-04-07 17:07 | 56.80566 | 4.22360 | 36406 ft | 422 kts | 302° |
| 2026-04-07 17:08 | 56.83653 | 4.13284 | 36406 ft | 423 kts | 302° |
| 2026-04-07 17:08 | 56.86760 | 4.04112 | 36404 ft | 423 kts | 301° |
| 2026-04-07 17:09 | 56.89871 | 3.94886 | 36398 ft | 423 kts | 301° |
| 2026-04-07 17:09 | 56.92973 | 3.85641 | 36397 ft | 424 kts | 301° |
| 2026-04-07 17:10 | 56.96045 | 3.76452 | 36393 ft | 424 kts | 301° |
| 2026-04-07 17:10 | 56.99138 | 3.67167 | 36394 ft | 425 kts | 301° |
| 2026-04-07 17:11 | 57.02211 | 3.57901 | 36391 ft | 425 kts | 301° |
| 2026-04-07 17:11 | 57.05124 | 3.48353 | 36391 ft | 425 kts | 298° |
| 2026-04-07 17:12 | 57.07923 | 3.38797 | 36389 ft | 426 kts | 298° |
| 2026-04-07 17:12 | 57.10739 | 3.29137 | 36387 ft | 426 kts | 297° |
| 2026-04-07 17:13 | 57.13543 | 3.19494 | 36384 ft | 427 kts | 297° |
| 2026-04-07 17:13 | 57.16361 | 3.09763 | 36379 ft | 427 kts | 297° |
| 2026-04-07 17:14 | 57.19142 | 3.00124 | 36375 ft | 427 kts | 297° |
| 2026-04-07 17:14 | 57.21952 | 2.90342 | 36371 ft | 428 kts | 297° |
| 2026-04-07 17:15 | 57.24741 | 2.80593 | 36363 ft | 428 kts | 297° |
| 2026-04-07 17:15 | 57.27512 | 2.70865 | 36357 ft | 428 kts | 297° |
| 2026-04-07 17:16 | 57.30300 | 2.61038 | 36354 ft | 429 kts | 296° |
| 2026-04-07 17:16 | 57.33060 | 2.51267 | 36352 ft | 429 kts | 296° |
| 2026-04-07 17:17 | 57.35829 | 2.41423 | 36353 ft | 429 kts | 296° |
| 2026-04-07 17:17 | 57.38590 | 2.31566 | 36352 ft | 429 kts | 296° |
| 2026-04-07 17:18 | 57.41335 | 2.21722 | 36349 ft | 430 kts | 296° |
| 2026-04-07 17:18 | 57.44081 | 2.11832 | 36346 ft | 430 kts | 296° |
| 2026-04-07 17:19 | 57.46811 | 2.01958 | 36347 ft | 430 kts | 295° |
| 2026-04-07 17:19 | 57.49555 | 1.91987 | 36345 ft | 430 kts | 295° |
| 2026-04-07 17:20 | 57.52284 | 1.82029 | 36344 ft | 431 kts | 295° |
| 2026-04-07 17:20 | 57.54983 | 1.72138 | 36337 ft | 431 kts | 295° |
| 2026-04-07 17:21 | 57.57708 | 1.62109 | 36336 ft | 431 kts | 295° |
| 2026-04-07 17:21 | 57.60412 | 1.52115 | 36329 ft | 431 kts | 295° |
| 2026-04-07 17:22 | 57.63122 | 1.42049 | 36325 ft | 431 kts | 295° |
| 2026-04-07 17:22 | 57.65796 | 1.32074 | 36324 ft | 432 kts | 294° |
| 2026-04-07 17:23 | 57.68484 | 1.22004 | 36316 ft | 432 kts | 294° |
| 2026-04-07 17:23 | 57.71185 | 1.11842 | 36317 ft | 432 kts | 294° |
| 2026-04-07 17:24 | 57.73853 | 1.01755 | 36307 ft | 433 kts | 294° |
| 2026-04-07 17:24 | 57.76526 | 0.91607 | 36305 ft | 433 kts | 294° |
| 2026-04-07 17:25 | 57.79175 | 0.81504 | 36301 ft | 434 kts | 294° |
| 2026-04-07 17:25 | 57.81832 | 0.71322 | 36295 ft | 434 kts | 294° |
| 2026-04-07 17:26 | 57.84497 | 0.61062 | 36291 ft | 434 kts | 293° |
| 2026-04-07 17:26 | 57.87135 | 0.50861 | 36285 ft | 435 kts | 293° |
| 2026-04-07 17:27 | 57.89788 | 0.40557 | 36279 ft | 435 kts | 293° |
| 2026-04-07 17:27 | 57.92413 | 0.30314 | 36275 ft | 436 kts | 293° |
| 2026-04-07 17:28 | 57.95059 | 0.19940 | 36269 ft | 436 kts | 293° |
| 2026-04-07 17:28 | 57.97682 | 0.09611 | 36262 ft | 429 kts | 292° |
| 2026-04-07 17:29 | 58.00250 | -0.00548 | 36189 ft | 427 kts | 292° |
| 2026-04-07 17:29 | 58.02824 | -0.10770 | 36240 ft | 436 kts | 292° |
| 2026-04-07 17:30 | 58.05426 | -0.21170 | 36247 ft | 437 kts | 292° |
| 2026-04-07 17:30 | 58.08029 | -0.31615 | 36241 ft | 437 kts | 291° |
| 2026-04-07 17:31 | 58.10638 | -0.42135 | 36235 ft | 437 kts | 291° |
| 2026-04-07 17:31 | 58.13208 | -0.52547 | 36229 ft | 438 kts | 291° |
| 2026-04-07 17:32 | 58.15793 | -0.63067 | 36225 ft | 438 kts | 291° |
| 2026-04-07 17:32 | 58.18343 | -0.73497 | 36218 ft | 438 kts | 291° |
| 2026-04-07 17:33 | 58.20913 | -0.84062 | 36211 ft | 438 kts | 291° |
| 2026-04-07 17:33 | 58.23475 | -0.94642 | 36206 ft | 438 kts | 291° |
| 2026-04-07 17:34 | 58.26009 | -1.05159 | 36201 ft | 439 kts | 290° |
| 2026-04-07 17:34 | 58.28546 | -1.15739 | 36195 ft | 439 kts | 290° |
| 2026-04-07 17:35 | 58.31065 | -1.26297 | 36182 ft | 439 kts | 290° |
| 2026-04-07 17:35 | 58.33605 | -1.36991 | 36184 ft | 440 kts | 290° |
| 2026-04-07 17:36 | 58.36132 | -1.47686 | 36170 ft | 440 kts | 290° |
| 2026-04-07 17:36 | 58.38219 | -1.56561 | 36174 ft | 440 kts | 290° |
| 2026-04-07 17:37 | 58.41123 | -1.68968 | 36164 ft | 441 kts | 290° |
| 2026-04-07 17:37 | 58.43216 | -1.77958 | 36163 ft | 441 kts | 289° |
| 2026-04-07 17:38 | 58.45686 | -1.88611 | 36153 ft | 441 kts | 289° |
| 2026-04-07 17:38 | 58.48181 | -1.99429 | 36147 ft | 442 kts | 289° |
| 2026-04-07 17:39 | 58.50654 | -2.10203 | 36143 ft | 442 kts | 289° |
| 2026-04-07 17:39 | 58.53137 | -2.21079 | 36134 ft | 442 kts | 289° |
| 2026-04-07 17:40 | 58.55593 | -2.31888 | 36125 ft | 442 kts | 289° |
| 2026-04-07 17:40 | 58.58044 | -2.42735 | 36122 ft | 442 kts | 288° |
| 2026-04-07 17:41 | 58.60470 | -2.53526 | 36109 ft | 443 kts | 288° |
| 2026-04-07 17:41 | 58.62907 | -2.64422 | 36097 ft | 443 kts | 288° |
| 2026-04-07 17:42 | 58.65335 | -2.75332 | 36097 ft | 443 kts | 288° |
| 2026-04-07 17:42 | 58.67743 | -2.86204 | 36082 ft | 443 kts | 288° |
| 2026-04-07 17:43 | 58.70166 | -2.97208 | 36083 ft | 443 kts | 288° |
| 2026-04-07 17:43 | 58.72569 | -3.08173 | 36085 ft | 443 kts | 287° |
| 2026-04-07 17:44 | 58.74940 | -3.19052 | 36083 ft | 442 kts | 287° |
| 2026-04-07 17:44 | 58.77324 | -3.30047 | 36084 ft | 442 kts | 287° |
| 2026-04-07 17:45 | 58.79691 | -3.41025 | 36084 ft | 442 kts | 287° |
| 2026-04-07 17:45 | 58.82034 | -3.51945 | 36075 ft | 442 kts | 287° |
| 2026-04-07 17:46 | 58.84377 | -3.62929 | 36071 ft | 441 kts | 286° |
| 2026-04-07 17:46 | 58.86700 | -3.73872 | 36061 ft | 441 kts | 286° |
| 2026-04-07 17:47 | 58.89028 | -3.84899 | 36058 ft | 441 kts | 286° |
| 2026-04-07 17:47 | 58.91346 | -3.95941 | 36053 ft | 441 kts | 285° |
| 2026-04-07 17:48 | 58.93647 | -4.06960 | 36049 ft | 441 kts | 285° |
| 2026-04-07 17:48 | 58.95944 | -4.18018 | 36046 ft | 441 kts | 285° |
| 2026-04-07 17:49 | 58.98225 | -4.29058 | 36038 ft | 441 kts | 285° |
| 2026-04-07 17:49 | 59.00505 | -4.40162 | 36035 ft | 441 kts | 285° |
| 2026-04-07 17:50 | 59.02772 | -4.51256 | 36040 ft | 441 kts | 284° |
| 2026-04-07 17:50 | 59.05024 | -4.62340 | 36035 ft | 441 kts | 284° |
| 2026-04-07 17:51 | 59.07291 | -4.73559 | 36037 ft | 442 kts | 284° |
| 2026-04-07 17:51 | 59.09541 | -4.84755 | 36037 ft | 442 kts | 284° |
| 2026-04-07 17:52 | 59.11767 | -4.95890 | 36040 ft | 443 kts | 284° |
| 2026-04-07 17:52 | 59.14010 | -5.07180 | 36042 ft | 443 kts | 283° |
| 2026-04-07 17:53 | 59.16236 | -5.18445 | 36041 ft | 443 kts | 283° |
| 2026-04-07 17:53 | 59.19543 | -5.35305 | 36034 ft | 444 kts | 283° |
| 2026-04-07 17:54 | 59.21754 | -5.46656 | 36034 ft | 444 kts | 283° |
| 2026-04-07 17:54 | 59.23941 | -5.57945 | 36032 ft | 445 kts | 283° |
| 2026-04-07 17:55 | 59.26122 | -5.69275 | 36029 ft | 445 kts | 282° |
| 2026-04-07 17:55 | 59.28298 | -5.80643 | 36026 ft | 446 kts | 282° |
| 2026-04-07 17:56 | 59.30476 | -5.92088 | 36024 ft | 446 kts | 282° |
| 2026-04-07 17:56 | 59.32639 | -6.03521 | 36019 ft | 447 kts | 282° |
| 2026-04-07 17:57 | 59.34803 | -6.15024 | 36015 ft | 447 kts | 282° |
| 2026-04-07 17:57 | 59.36940 | -6.26457 | 36011 ft | 447 kts | 282° |
| 2026-04-07 17:58 | 59.39082 | -6.37980 | 36008 ft | 448 kts | 281° |
| 2026-04-07 17:58 | 59.41207 | -6.49483 | 36010 ft | 448 kts | 281° |
| 2026-04-07 17:59 | 59.43334 | -6.61066 | 36008 ft | 449 kts | 281° |
| 2026-04-07 17:59 | 59.45435 | -6.72577 | 35991 ft | 449 kts | 281° |
| 2026-04-07 18:00 | 59.47546 | -6.84216 | 35992 ft | 449 kts | 281° |
| 2026-04-07 18:00 | 59.49649 | -6.95878 | 35986 ft | 450 kts | 281° |
| 2026-04-07 18:01 | 59.51739 | -7.07547 | 35982 ft | 450 kts | 281° |
| 2026-04-07 18:01 | 59.53814 | -7.19197 | 35980 ft | 451 kts | 280° |
| 2026-04-07 18:02 | 59.55890 | -7.30926 | 35973 ft | 451 kts | 280° |
| 2026-04-07 18:02 | 59.57943 | -7.42607 | 35967 ft | 451 kts | 280° |
| 2026-04-07 18:03 | 59.60001 | -7.54381 | 35967 ft | 451 kts | 280° |
| 2026-04-07 18:03 | 59.62030 | -7.66070 | 35968 ft | 451 kts | 280° |
| 2026-04-07 18:04 | 59.64069 | -7.77891 | 35959 ft | 452 kts | 280° |
| 2026-04-07 18:04 | 59.66097 | -7.89720 | 35954 ft | 452 kts | 279° |
| 2026-04-07 18:05 | 59.68105 | -8.01507 | 35953 ft | 452 kts | 279° |
| 2026-04-07 18:05 | 59.70114 | -8.13377 | 35950 ft | 452 kts | 279° |
| 2026-04-07 18:06 | 59.72114 | -8.25276 | 35955 ft | 452 kts | 279° |
| 2026-04-07 18:06 | 59.74091 | -8.37111 | 35949 ft | 453 kts | 279° |
| 2026-04-07 18:07 | 59.76071 | -8.49049 | 35938 ft | 453 kts | 279° |
| 2026-04-07 18:07 | 59.78024 | -8.60897 | 35947 ft | 453 kts | 279° |
| 2026-04-07 18:08 | 59.79983 | -8.72861 | 35953 ft | 453 kts | 279° |
| 2026-04-07 18:08 | 59.81919 | -8.84769 | 35951 ft | 453 kts | 279° |
| 2026-04-07 18:09 | 59.83858 | -8.96778 | 35954 ft | 454 kts | 279° |
| 2026-04-07 18:09 | 59.85781 | -9.08767 | 35951 ft | 454 kts | 279° |
| 2026-04-07 18:10 | 59.87704 | -9.20838 | 35944 ft | 455 kts | 279° |
| 2026-04-07 18:10 | 59.89617 | -9.32923 | 35954 ft | 455 kts | 279° |
| 2026-04-07 18:11 | 59.91510 | -9.44963 | 35953 ft | 456 kts | 279° |
| 2026-04-07 18:11 | 59.93405 | -9.57096 | 35944 ft | 457 kts | 279° |
| 2026-04-07 18:12 | 59.94352 | -9.63211 | 36065 ft | 461 kts | 279° |
| 2026-04-07 18:12 | 59.95298 | -9.69338 | 36374 ft | 459 kts | 279° |
| 2026-04-07 18:12 | 59.96228 | -9.75388 | 36714 ft | 458 kts | 279° |
| 2026-04-07 18:12 | 59.97173 | -9.81475 | 36995 ft | 458 kts | 281° |
| 2026-04-07 18:13 | 59.98234 | -9.87545 | 37240 ft | 461 kts | 284° |
| 2026-04-07 18:13 | 59.99452 | -9.93544 | 37477 ft | 464 kts | 287° |
| 2026-04-07 18:13 | 60.00831 | -9.99453 | 37732 ft | 466 kts | 290° |
| 2026-04-07 18:13 | 60.02370 | -10.05246 | 37926 ft | 469 kts | 294° |
| 2026-04-07 18:14 | 60.05891 | -10.16324 | 37946 ft | 474 kts | 299° |
| 2026-04-07 18:14 | 60.09801 | -10.27045 | 37943 ft | 474 kts | 300° |
| 2026-04-07 18:15 | 60.13702 | -10.37663 | 37940 ft | 474 kts | 300° |
| 2026-04-07 18:15 | 60.17622 | -10.48420 | 37942 ft | 474 kts | 300° |
| 2026-04-07 18:16 | 60.21498 | -10.59131 | 37940 ft | 473 kts | 300° |
| 2026-04-07 18:16 | 60.25378 | -10.69910 | 37935 ft | 473 kts | 300° |
| 2026-04-07 18:17 | 60.29232 | -10.80666 | 37931 ft | 473 kts | 300° |
| 2026-04-07 18:17 | 60.33095 | -10.91501 | 37916 ft | 473 kts | 300° |
| 2026-04-07 18:18 | 60.36959 | -11.02389 | 37922 ft | 473 kts | 300° |
| 2026-04-07 18:18 | 60.40778 | -11.13202 | 37918 ft | 473 kts | 300° |
| 2026-04-07 18:19 | 60.44614 | -11.24114 | 37917 ft | 473 kts | 300° |
| 2026-04-07 18:19 | 60.48441 | -11.35047 | 37915 ft | 473 kts | 300° |
| 2026-04-07 18:20 | 60.52230 | -11.45927 | 37915 ft | 473 kts | 300° |
| 2026-04-07 18:20 | 60.56041 | -11.56922 | 37909 ft | 473 kts | 300° |
| 2026-04-07 18:21 | 60.59809 | -11.67841 | 37904 ft | 473 kts | 299° |
| 2026-04-07 18:21 | 60.63592 | -11.78857 | 37898 ft | 472 kts | 299° |
| 2026-04-07 18:22 | 60.67365 | -11.89897 | 37898 ft | 472 kts | 299° |
| 2026-04-07 18:22 | 60.71110 | -12.00906 | 37892 ft | 472 kts | 299° |
| 2026-04-07 18:23 | 60.74876 | -12.12027 | 37891 ft | 472 kts | 299° |
| 2026-04-07 18:23 | 60.78603 | -12.23090 | 37889 ft | 472 kts | 299° |
| 2026-04-07 18:24 | 60.82342 | -12.34241 | 37884 ft | 472 kts | 299° |
| 2026-04-07 18:24 | 60.86048 | -12.45346 | 37879 ft | 472 kts | 299° |
| 2026-04-07 18:25 | 60.89143 | -12.54662 | 37875 ft | 472 kts | 299° |
| 2026-04-07 18:25 | 60.92845 | -12.65853 | 37872 ft | 472 kts | 299° |
| 2026-04-07 18:26 | 60.96526 | -12.77032 | 37869 ft | 472 kts | 299° |
| 2026-04-07 18:26 | 61.00231 | -12.88344 | 37866 ft | 472 kts | 298° |
| 2026-04-07 18:27 | 61.03922 | -12.99664 | 37864 ft | 472 kts | 298° |
| 2026-04-07 18:27 | 61.07570 | -13.10909 | 37855 ft | 472 kts | 298° |
| 2026-04-07 18:28 | 61.11213 | -13.22194 | 37856 ft | 471 kts | 298° |
| 2026-04-07 18:28 | 61.14857 | -13.33537 | 37838 ft | 471 kts | 298° |
| 2026-04-07 18:29 | 61.18501 | -13.44935 | 37840 ft | 471 kts | 298° |
| 2026-04-07 18:29 | 61.22125 | -13.56325 | 37839 ft | 471 kts | 298° |
| 2026-04-07 18:30 | 61.25721 | -13.67688 | 37835 ft | 471 kts | 298° |
| 2026-04-07 18:30 | 61.29336 | -13.79163 | 37831 ft | 471 kts | 298° |
| 2026-04-07 18:31 | 61.32898 | -13.90528 | 37825 ft | 470 kts | 298° |
| 2026-04-07 18:31 | 61.36489 | -14.02043 | 37818 ft | 470 kts | 298° |
| 2026-04-07 18:32 | 61.40048 | -14.13512 | 37819 ft | 470 kts | 298° |
| 2026-04-07 18:32 | 61.43608 | -14.25041 | 37812 ft | 470 kts | 298° |
| 2026-04-07 18:33 | 61.47139 | -14.36538 | 37807 ft | 470 kts | 298° |
| 2026-04-07 18:33 | 61.50683 | -14.48129 | 37800 ft | 470 kts | 297° |
| 2026-04-07 18:34 | 61.54206 | -14.59716 | 37794 ft | 470 kts | 297° |
| 2026-04-07 18:34 | 61.57730 | -14.71359 | 37790 ft | 470 kts | 297° |
| 2026-04-07 18:35 | 61.61222 | -14.82958 | 37787 ft | 469 kts | 297° |
| 2026-04-07 18:35 | 61.64720 | -14.94637 | 37781 ft | 469 kts | 297° |
| 2026-04-07 18:36 | 61.68210 | -15.06349 | 37776 ft | 469 kts | 297° |
| 2026-04-07 18:36 | 61.71674 | -15.18029 | 37776 ft | 469 kts | 297° |
| 2026-04-07 18:37 | 61.75135 | -15.29762 | 37757 ft | 469 kts | 297° |
| 2026-04-07 18:37 | 61.78591 | -15.41541 | 37759 ft | 469 kts | 297° |
| 2026-04-07 18:38 | 61.82021 | -15.53289 | 37759 ft | 469 kts | 297° |
| 2026-04-07 18:38 | 61.85429 | -15.65023 | 37748 ft | 469 kts | 297° |
| 2026-04-07 18:39 | 61.88855 | -15.76881 | 37745 ft | 469 kts | 297° |
| 2026-04-07 18:39 | 61.92263 | -15.88738 | 37741 ft | 469 kts | 297° |
| 2026-04-07 18:40 | 61.95654 | -16.00598 | 37736 ft | 468 kts | 296° |
| 2026-04-07 18:40 | 61.99023 | -16.12441 | 37729 ft | 468 kts | 296° |
| 2026-04-07 18:41 | 62.02411 | -16.24413 | 37720 ft | 468 kts | 296° |
| 2026-04-07 18:41 | 62.05782 | -16.36390 | 37715 ft | 468 kts | 296° |
| 2026-04-07 18:42 | 62.09125 | -16.48330 | 37709 ft | 468 kts | 296° |
| 2026-04-07 18:42 | 62.12471 | -16.60344 | 37702 ft | 468 kts | 296° |
| 2026-04-07 18:43 | 62.15802 | -16.72368 | 37698 ft | 468 kts | 296° |
| 2026-04-07 18:43 | 62.19101 | -16.84343 | 37688 ft | 468 kts | 296° |
| 2026-04-07 18:44 | 62.22413 | -16.96425 | 37680 ft | 467 kts | 296° |
| 2026-04-07 18:44 | 62.25693 | -17.08459 | 37679 ft | 467 kts | 296° |
| 2026-04-07 18:45 | 62.28986 | -17.20603 | 37668 ft | 467 kts | 295° |
| 2026-04-07 18:45 | 62.32246 | -17.32690 | 37668 ft | 467 kts | 295° |
| 2026-04-07 18:46 | 62.35528 | -17.44928 | 37660 ft | 468 kts | 295° |
| 2026-04-07 18:46 | 62.38785 | -17.57134 | 37656 ft | 468 kts | 295° |
| 2026-04-07 18:47 | 62.42012 | -17.69298 | 37649 ft | 468 kts | 295° |
| 2026-04-07 18:47 | 62.45248 | -17.81560 | 37646 ft | 468 kts | 295° |
| 2026-04-07 18:48 | 62.48479 | -17.93871 | 37633 ft | 468 kts | 295° |
| 2026-04-07 18:48 | 62.51693 | -18.06186 | 37618 ft | 468 kts | 295° |
| 2026-04-07 18:49 | 62.54902 | -18.18548 | 37632 ft | 468 kts | 295° |
| 2026-04-07 18:49 | 62.58082 | -18.30866 | 37616 ft | 468 kts | 295° |
| 2026-04-07 18:50 | 62.61272 | -18.43295 | 37610 ft | 469 kts | 295° |
| 2026-04-07 18:50 | 62.64431 | -18.55673 | 37607 ft | 469 kts | 295° |
| 2026-04-07 18:51 | 62.67602 | -18.68165 | 37605 ft | 469 kts | 295° |
| 2026-04-07 18:51 | 62.70742 | -18.80606 | 37600 ft | 469 kts | 295° |
| 2026-04-07 18:52 | 62.73891 | -18.93153 | 37592 ft | 469 kts | 294° |
| 2026-04-07 18:52 | 62.77037 | -19.05760 | 37589 ft | 469 kts | 294° |
| 2026-04-07 18:53 | 62.80151 | -19.18306 | 37580 ft | 469 kts | 294° |
| 2026-04-07 18:53 | 62.83251 | -19.30870 | 37571 ft | 469 kts | 294° |
| 2026-04-07 18:54 | 62.86359 | -19.43538 | 37567 ft | 469 kts | 294° |
| 2026-04-07 18:54 | 62.89440 | -19.56170 | 37560 ft | 469 kts | 294° |
| 2026-04-07 18:55 | 62.92508 | -19.68815 | 37559 ft | 469 kts | 294° |
| 2026-04-07 18:55 | 62.95580 | -19.81562 | 37548 ft | 469 kts | 294° |
| 2026-04-07 18:56 | 62.98565 | -19.94365 | 37542 ft | 468 kts | 291° |
| 2026-04-07 18:56 | 63.01031 | -20.07823 | 37537 ft | 465 kts | 285° |
| 2026-04-07 18:57 | 63.02958 | -20.21403 | 37521 ft | 464 kts | 283° |
| 2026-04-07 18:57 | 63.04825 | -20.35112 | 37512 ft | 464 kts | 283° |
| 2026-04-07 18:58 | 63.06666 | -20.48701 | 37511 ft | 464 kts | 283° |
| 2026-04-07 18:58 | 63.08510 | -20.62397 | 37509 ft | 463 kts | 283° |
| 2026-04-07 18:59 | 63.10337 | -20.76064 | 37499 ft | 463 kts | 283° |
| 2026-04-07 18:59 | 63.12157 | -20.89791 | 37490 ft | 463 kts | 283° |
| 2026-04-07 19:00 | 63.13956 | -21.03478 | 37485 ft | 463 kts | 282° |
| 2026-04-07 19:00 | 63.15753 | -21.17262 | 37479 ft | 463 kts | 282° |
| 2026-04-07 19:01 | 63.17525 | -21.30972 | 37472 ft | 463 kts | 282° |
| 2026-04-07 19:02 | 63.20163 | -21.51614 | 37459 ft | 462 kts | 282° |
| 2026-04-07 19:02 | 63.21910 | -21.65436 | 37455 ft | 462 kts | 282° |
| 2026-04-07 19:03 | 63.23630 | -21.79160 | 37442 ft | 462 kts | 282° |
| 2026-04-07 19:03 | 63.25352 | -21.93030 | 37441 ft | 462 kts | 282° |
| 2026-04-07 19:04 | 63.27055 | -22.06874 | 37431 ft | 462 kts | 282° |
| 2026-04-07 19:04 | 63.28747 | -22.20752 | 37425 ft | 462 kts | 282° |
| 2026-04-07 19:05 | 63.30413 | -22.34540 | 37416 ft | 462 kts | 281° |
| 2026-04-07 19:05 | 63.32078 | -22.48441 | 37417 ft | 462 kts | 281° |
| 2026-04-07 19:06 | 63.33716 | -22.62251 | 37408 ft | 462 kts | 281° |
| 2026-04-07 19:06 | 63.35354 | -22.76190 | 37399 ft | 462 kts | 281° |
| 2026-04-07 19:07 | 63.36978 | -22.90148 | 37390 ft | 462 kts | 281° |
| 2026-04-07 19:07 | 63.38585 | -23.04078 | 37388 ft | 462 kts | 281° |
| 2026-04-07 19:08 | 63.40175 | -23.18011 | 37380 ft | 463 kts | 281° |
| 2026-04-07 19:08 | 63.41763 | -23.32042 | 37372 ft | 463 kts | 281° |
| 2026-04-07 19:09 | 63.43333 | -23.46064 | 37371 ft | 463 kts | 281° |
| 2026-04-07 19:09 | 63.44879 | -23.60008 | 37353 ft | 463 kts | 280° |
| 2026-04-07 19:10 | 63.46423 | -23.74073 | 37352 ft | 463 kts | 280° |
| 2026-04-07 19:10 | 63.47937 | -23.88002 | 37350 ft | 463 kts | 280° |
| 2026-04-07 19:11 | 63.49465 | -24.02204 | 37347 ft | 463 kts | 280° |
| 2026-04-07 19:11 | 63.50968 | -24.16315 | 37337 ft | 464 kts | 280° |
| 2026-04-07 19:12 | 63.52450 | -24.30368 | 37330 ft | 464 kts | 280° |
| 2026-04-07 19:12 | 63.53924 | -24.44500 | 37327 ft | 464 kts | 280° |
| 2026-04-07 19:13 | 63.55378 | -24.58588 | 37316 ft | 464 kts | 279° |
| 2026-04-07 19:13 | 63.56585 | -24.70389 | 37314 ft | 464 kts | 279° |
| 2026-04-07 19:14 | 63.58025 | -24.84615 | 37305 ft | 464 kts | 279° |
| 2026-04-07 19:14 | 63.59447 | -24.98819 | 37291 ft | 464 kts | 279° |
| 2026-04-07 19:15 | 63.60853 | -25.13006 | 37291 ft | 464 kts | 279° |
| 2026-04-07 19:15 | 63.62250 | -25.27268 | 37293 ft | 465 kts | 279° |
| 2026-04-07 19:16 | 63.63633 | -25.41539 | 37284 ft | 465 kts | 279° |
| 2026-04-07 19:16 | 63.64995 | -25.55760 | 37277 ft | 465 kts | 279° |
| 2026-04-07 19:17 | 63.66350 | -25.70065 | 37277 ft | 465 kts | 279° |
| 2026-04-07 19:17 | 63.67684 | -25.84311 | 37274 ft | 465 kts | 279° |
| 2026-04-07 19:18 | 63.69009 | -25.98626 | 37264 ft | 465 kts | 278° |
| 2026-04-07 19:18 | 63.70319 | -26.12939 | 37258 ft | 465 kts | 278° |
| 2026-04-07 19:19 | 63.71622 | -26.27355 | 37253 ft | 465 kts | 278° |
| 2026-04-07 19:19 | 63.72900 | -26.41663 | 37247 ft | 465 kts | 278° |
| 2026-04-07 19:20 | 63.74174 | -26.56086 | 37243 ft | 466 kts | 278° |
| 2026-04-07 19:20 | 63.75429 | -26.70492 | 37236 ft | 466 kts | 278° |
| 2026-04-07 19:21 | 63.76669 | -26.84884 | 37234 ft | 466 kts | 278° |
| 2026-04-07 19:21 | 63.77897 | -26.99324 | 37229 ft | 466 kts | 278° |
| 2026-04-07 19:22 | 63.79115 | -27.13829 | 37222 ft | 466 kts | 278° |
| 2026-04-07 19:22 | 63.80309 | -27.28238 | 37223 ft | 466 kts | 277° |
| 2026-04-07 19:23 | 63.81497 | -27.42758 | 37215 ft | 466 kts | 277° |
| 2026-04-07 19:23 | 63.82672 | -27.57305 | 37217 ft | 466 kts | 277° |
| 2026-04-07 19:24 | 63.83824 | -27.71763 | 37215 ft | 466 kts | 277° |
| 2026-04-07 19:24 | 63.84966 | -27.86286 | 37203 ft | 466 kts | 277° |
| 2026-04-07 19:25 | 63.86098 | -28.00894 | 37210 ft | 466 kts | 277° |
| 2026-04-07 19:25 | 63.87211 | -28.15437 | 37190 ft | 466 kts | 277° |
| 2026-04-07 19:26 | 63.88314 | -28.30069 | 37194 ft | 466 kts | 277° |
| 2026-04-07 19:26 | 63.89401 | -28.44689 | 37194 ft | 466 kts | 276° |
| 2026-04-07 19:27 | 63.90469 | -28.59251 | 37191 ft | 466 kts | 276° |
| 2026-04-07 19:27 | 63.91526 | -28.73887 | 37188 ft | 466 kts | 276° |
| 2026-04-07 19:28 | 63.92563 | -28.88467 | 37191 ft | 466 kts | 276° |
| 2026-04-07 19:28 | 63.93596 | -29.03195 | 37185 ft | 467 kts | 276° |
| 2026-04-07 19:29 | 63.94605 | -29.17808 | 37179 ft | 467 kts | 276° |
| 2026-04-07 19:29 | 63.95604 | -29.32502 | 37179 ft | 467 kts | 276° |
| 2026-04-07 19:30 | 63.96590 | -29.47233 | 37174 ft | 467 kts | 276° |
| 2026-04-07 19:30 | 63.97558 | -29.61916 | 37177 ft | 467 kts | 276° |
| 2026-04-07 19:31 | 63.98515 | -29.76672 | 37175 ft | 467 kts | 275° |
| 2026-04-07 19:31 | 63.99455 | -29.91449 | 37168 ft | 467 kts | 275° |
| 2026-04-07 19:32 | 64.00210 | -30.06211 | 37170 ft | 466 kts | 272° |
| 2026-04-07 19:32 | 64.00710 | -30.21081 | 37168 ft | 466 kts | 271° |
| 2026-04-07 19:33 | 64.01186 | -30.35931 | 37167 ft | 466 kts | 271° |
| 2026-04-07 19:33 | 64.01649 | -30.50740 | 37169 ft | 467 kts | 271° |
| 2026-04-07 19:34 | 64.02100 | -30.65617 | 37163 ft | 467 kts | 271° |
| 2026-04-07 19:34 | 64.02536 | -30.80435 | 37163 ft | 467 kts | 271° |
| 2026-04-07 19:35 | 64.02958 | -30.95323 | 37161 ft | 467 kts | 271° |
| 2026-04-07 19:35 | 64.03366 | -31.10265 | 37160 ft | 467 kts | 271° |
| 2026-04-07 19:36 | 64.03760 | -31.25227 | 37163 ft | 467 kts | 270° |
| 2026-04-07 19:36 | 64.04134 | -31.40026 | 37158 ft | 467 kts | 270° |
| 2026-04-07 19:37 | 64.04497 | -31.54991 | 37164 ft | 467 kts | 270° |
| 2026-04-07 19:37 | 64.04841 | -31.69820 | 37166 ft | 467 kts | 270° |
| 2026-04-07 19:38 | 64.05173 | -31.84788 | 37164 ft | 468 kts | 270° |
| 2026-04-07 19:38 | 64.05490 | -31.99752 | 37168 ft | 468 kts | 270° |
| 2026-04-07 19:39 | 64.05791 | -32.14703 | 37168 ft | 468 kts | 270° |
| 2026-04-07 19:39 | 64.06076 | -32.29638 | 37167 ft | 468 kts | 270° |
| 2026-04-07 19:40 | 64.06346 | -32.44580 | 37168 ft | 468 kts | 269° |
| 2026-04-07 19:40 | 64.06601 | -32.59569 | 37172 ft | 468 kts | 269° |
| 2026-04-07 19:41 | 64.06839 | -32.74483 | 37171 ft | 468 kts | 269° |
| 2026-04-07 19:41 | 64.07063 | -32.89430 | 37175 ft | 468 kts | 269° |
| 2026-04-07 19:42 | 64.07273 | -33.04468 | 37180 ft | 468 kts | 269° |
| 2026-04-07 19:42 | 64.07466 | -33.19380 | 37177 ft | 468 kts | 269° |
| 2026-04-07 19:43 | 64.07644 | -33.34402 | 37183 ft | 468 kts | 269° |
| 2026-04-07 19:43 | 64.07806 | -33.49376 | 37181 ft | 469 kts | 268° |
| 2026-04-07 19:44 | 64.07954 | -33.64378 | 37187 ft | 469 kts | 268° |
| 2026-04-07 19:44 | 64.08085 | -33.79338 | 37193 ft | 469 kts | 268° |
| 2026-04-07 19:45 | 64.08202 | -33.94352 | 37195 ft | 469 kts | 268° |
| 2026-04-07 19:45 | 64.08304 | -34.09356 | 37203 ft | 469 kts | 268° |
| 2026-04-07 19:46 | 64.08390 | -34.24375 | 37207 ft | 469 kts | 268° |
| 2026-04-07 19:46 | 64.08460 | -34.39326 | 37208 ft | 469 kts | 268° |
| 2026-04-07 19:47 | 64.08515 | -34.54367 | 37201 ft | 468 kts | 267° |
| 2026-04-07 19:47 | 64.08554 | -34.69297 | 37204 ft | 468 kts | 267° |
| 2026-04-07 19:48 | 64.08578 | -34.84317 | 37212 ft | 468 kts | 267° |
| 2026-04-07 19:48 | 64.08586 | -34.99217 | 37213 ft | 468 kts | 267° |
| 2026-04-07 19:49 | 64.08580 | -35.14229 | 37222 ft | 468 kts | 266° |
| 2026-04-07 19:49 | 64.08558 | -35.29163 | 37226 ft | 468 kts | 266° |
| 2026-04-07 19:50 | 64.08522 | -35.44211 | 37231 ft | 468 kts | 266° |
| 2026-04-07 19:50 | 64.08469 | -35.59122 | 37238 ft | 467 kts | 266° |
| 2026-04-07 19:51 | 64.08401 | -35.73983 | 37240 ft | 467 kts | 266° |
| 2026-04-07 19:51 | 64.08320 | -35.88804 | 37243 ft | 467 kts | 266° |
| 2026-04-07 19:52 | 64.08222 | -36.03876 | 37248 ft | 467 kts | 265° |
| 2026-04-07 19:52 | 64.08107 | -36.18867 | 37249 ft | 467 kts | 265° |
| 2026-04-07 19:53 | 64.07978 | -36.33822 | 37256 ft | 467 kts | 265° |
| 2026-04-07 19:53 | 64.07835 | -36.48629 | 37262 ft | 467 kts | 265° |
| 2026-04-07 19:54 | 64.07675 | -36.63561 | 37263 ft | 467 kts | 265° |
| 2026-04-07 19:54 | 64.07498 | -36.78485 | 37272 ft | 467 kts | 265° |
| 2026-04-07 19:55 | 64.07310 | -36.93314 | 37274 ft | 467 kts | 265° |
| 2026-04-07 19:55 | 64.07103 | -37.08294 | 37284 ft | 468 kts | 265° |
| 2026-04-07 19:56 | 64.06881 | -37.23231 | 37282 ft | 468 kts | 265° |
| 2026-04-07 19:56 | 64.06646 | -37.38080 | 37288 ft | 468 kts | 264° |
| 2026-04-07 19:57 | 64.06394 | -37.53026 | 37295 ft | 468 kts | 264° |
| 2026-04-07 19:57 | 64.06172 | -37.65474 | 37297 ft | 469 kts | 264° |
| 2026-04-07 19:58 | 64.05891 | -37.80447 | 37293 ft | 469 kts | 264° |
| 2026-04-07 19:58 | 64.05596 | -37.95310 | 37299 ft | 470 kts | 264° |
| 2026-04-07 19:59 | 64.05283 | -38.10384 | 37305 ft | 470 kts | 264° |
| 2026-04-07 19:59 | 64.04955 | -38.25397 | 37306 ft | 470 kts | 264° |
| 2026-04-07 20:00 | 64.04615 | -38.40301 | 37307 ft | 470 kts | 264° |
| 2026-04-07 20:00 | 64.04072 | -38.62796 | 37312 ft | 470 kts | 264° |
| 2026-04-07 20:01 | 64.03692 | -38.77715 | 37314 ft | 470 kts | 264° |
| 2026-04-07 20:01 | 64.03295 | -38.92680 | 37319 ft | 470 kts | 264° |
| 2026-04-07 20:02 | 64.02883 | -39.07654 | 37319 ft | 470 kts | 263° |
| 2026-04-07 20:02 | 64.02457 | -39.22567 | 37317 ft | 470 kts | 263° |
| 2026-04-07 20:03 | 64.02015 | -39.37515 | 37325 ft | 470 kts | 263° |
| 2026-04-07 20:03 | 64.01558 | -39.52448 | 37338 ft | 469 kts | 263° |
| 2026-04-07 20:04 | 64.01087 | -39.67299 | 37333 ft | 470 kts | 263° |
| 2026-04-07 20:04 | 64.00599 | -39.82216 | 37333 ft | 470 kts | 263° |
| 2026-04-07 20:05 | 64.00090 | -39.97094 | 37330 ft | 470 kts | 262° |
| 2026-04-07 20:05 | 63.99246 | -40.11960 | 37334 ft | 468 kts | 259° |
| 2026-04-07 20:06 | 63.98298 | -40.26738 | 37337 ft | 469 kts | 259° |
| 2026-04-07 20:06 | 63.97343 | -40.41383 | 37337 ft | 469 kts | 259° |
| 2026-04-07 20:07 | 63.96365 | -40.56166 | 37344 ft | 469 kts | 258° |
| 2026-04-07 20:07 | 63.95375 | -40.70913 | 37348 ft | 468 kts | 258° |
| 2026-04-07 20:08 | 63.94374 | -40.85585 | 37351 ft | 468 kts | 258° |
| 2026-04-07 20:08 | 63.93375 | -41.00007 | 37353 ft | 469 kts | 258° |
| 2026-04-07 20:09 | 63.92360 | -41.14455 | 37357 ft | 469 kts | 258° |
| 2026-04-07 20:09 | 63.91308 | -41.29192 | 37365 ft | 469 kts | 258° |
| 2026-04-07 20:10 | 63.90248 | -41.43824 | 37363 ft | 469 kts | 258° |
| 2026-04-07 20:10 | 63.89169 | -41.58515 | 37368 ft | 469 kts | 258° |
| 2026-04-07 20:11 | 63.88071 | -41.73239 | 37373 ft | 469 kts | 257° |
| 2026-04-07 20:11 | 63.86969 | -41.87819 | 37384 ft | 469 kts | 257° |
| 2026-04-07 20:12 | 63.85842 | -42.02512 | 37398 ft | 469 kts | 257° |
| 2026-04-07 20:12 | 63.84708 | -42.17090 | 37399 ft | 470 kts | 257° |
| 2026-04-07 20:13 | 63.83552 | -42.31753 | 37399 ft | 470 kts | 257° |
| 2026-04-07 20:13 | 63.82382 | -42.46398 | 37408 ft | 470 kts | 257° |
| 2026-04-07 20:14 | 63.81204 | -42.60933 | 37424 ft | 470 kts | 257° |
| 2026-04-07 20:14 | 63.80004 | -42.75563 | 37434 ft | 470 kts | 256° |
| 2026-04-07 20:15 | 63.78797 | -42.90075 | 37437 ft | 470 kts | 256° |
| 2026-04-07 20:15 | 63.77563 | -43.04736 | 37442 ft | 470 kts | 256° |
| 2026-04-07 20:16 | 63.76318 | -43.19330 | 37445 ft | 470 kts | 256° |
| 2026-04-07 20:16 | 63.75058 | -43.33913 | 37448 ft | 471 kts | 256° |
| 2026-04-07 20:17 | 63.73789 | -43.48418 | 37447 ft | 471 kts | 256° |
| 2026-04-07 20:17 | 63.72497 | -43.63002 | 37449 ft | 471 kts | 256° |
| 2026-04-07 20:18 | 63.71200 | -43.77464 | 37448 ft | 471 kts | 256° |
| 2026-04-07 20:18 | 63.69879 | -43.92023 | 37447 ft | 471 kts | 255° |
| 2026-04-07 20:19 | 63.68542 | -44.06581 | 37446 ft | 471 kts | 255° |
| 2026-04-07 20:19 | 63.67191 | -44.21117 | 37437 ft | 471 kts | 255° |
| 2026-04-07 20:20 | 63.65824 | -44.35652 | 37444 ft | 471 kts | 255° |
| 2026-04-07 20:20 | 63.64453 | -44.50057 | 37435 ft | 471 kts | 255° |
| 2026-04-07 20:21 | 63.63057 | -44.64565 | 37439 ft | 471 kts | 255° |
| 2026-04-07 20:21 | 63.61657 | -44.78949 | 37434 ft | 471 kts | 255° |
| 2026-04-07 20:22 | 63.60231 | -44.93439 | 37427 ft | 472 kts | 255° |
| 2026-04-07 20:22 | 63.58789 | -45.07922 | 37429 ft | 472 kts | 254° |
| 2026-04-07 20:23 | 63.57344 | -45.22279 | 37427 ft | 472 kts | 254° |
| 2026-04-07 20:23 | 63.55878 | -45.36690 | 37429 ft | 472 kts | 254° |
| 2026-04-07 20:24 | 63.54405 | -45.51013 | 37426 ft | 472 kts | 254° |
| 2026-04-07 20:24 | 63.52907 | -45.65421 | 37426 ft | 472 kts | 254° |
| 2026-04-07 20:25 | 63.51396 | -45.79804 | 37430 ft | 472 kts | 253° |
| 2026-04-07 20:25 | 63.49878 | -45.94098 | 37432 ft | 472 kts | 253° |
| 2026-04-07 20:26 | 63.48337 | -46.08458 | 37434 ft | 472 kts | 253° |
| 2026-04-07 20:26 | 63.46780 | -46.22827 | 37442 ft | 472 kts | 253° |
| 2026-04-07 20:27 | 63.45222 | -46.37052 | 37433 ft | 472 kts | 253° |
| 2026-04-07 20:27 | 63.43636 | -46.51383 | 37440 ft | 472 kts | 253° |
| 2026-04-07 20:28 | 63.42048 | -46.65589 | 37440 ft | 472 kts | 253° |
| 2026-04-07 20:28 | 63.40433 | -46.79891 | 37449 ft | 472 kts | 252° |
| 2026-04-07 20:29 | 63.38814 | -46.94098 | 37432 ft | 472 kts | 252° |
| 2026-04-07 20:29 | 63.37167 | -47.08401 | 37427 ft | 472 kts | 252° |
| 2026-04-07 20:30 | 63.35509 | -47.22655 | 37426 ft | 472 kts | 252° |
| 2026-04-07 20:30 | 63.33845 | -47.36827 | 37424 ft | 472 kts | 252° |
| 2026-04-07 20:31 | 63.32158 | -47.51068 | 37417 ft | 472 kts | 252° |
| 2026-04-07 20:31 | 63.30469 | -47.65176 | 37408 ft | 472 kts | 252° |
| 2026-04-07 20:32 | 63.28759 | -47.79336 | 37405 ft | 472 kts | 252° |
| 2026-04-07 20:32 | 63.27043 | -47.93408 | 37398 ft | 473 kts | 251° |
| 2026-04-07 20:33 | 63.25297 | -48.07600 | 37389 ft | 473 kts | 251° |
| 2026-04-07 20:33 | 63.23541 | -48.21737 | 37384 ft | 473 kts | 251° |
| 2026-04-07 20:34 | 63.21780 | -48.35786 | 37379 ft | 473 kts | 251° |
| 2026-04-07 20:34 | 63.19996 | -48.49888 | 37383 ft | 472 kts | 251° |
| 2026-04-07 20:35 | 63.18197 | -48.63980 | 37384 ft | 472 kts | 251° |
| 2026-04-07 20:35 | 63.16393 | -48.77991 | 37380 ft | 472 kts | 251° |
| 2026-04-07 20:36 | 63.14580 | -48.91946 | 37379 ft | 472 kts | 251° |
| 2026-04-07 20:36 | 63.12736 | -49.06008 | 37371 ft | 472 kts | 250° |
| 2026-04-07 20:37 | 63.10883 | -49.20024 | 37369 ft | 472 kts | 250° |
| 2026-04-07 20:37 | 63.09031 | -49.33908 | 37361 ft | 472 kts | 250° |
| 2026-04-07 20:38 | 63.07151 | -49.47882 | 37351 ft | 472 kts | 250° |
| 2026-04-07 20:38 | 63.05255 | -49.61856 | 37348 ft | 472 kts | 250° |
| 2026-04-07 20:39 | 63.03362 | -49.75691 | 37344 ft | 472 kts | 250° |
| 2026-04-07 20:39 | 63.01435 | -49.89648 | 37339 ft | 472 kts | 250° |
| 2026-04-07 20:40 | 62.99495 | -50.03444 | 37338 ft | 472 kts | 248° |
| 2026-04-07 20:40 | 62.97349 | -50.17281 | 37336 ft | 471 kts | 248° |
| 2026-04-07 20:41 | 62.95184 | -50.30975 | 37331 ft | 471 kts | 248° |
| 2026-04-07 20:41 | 62.93032 | -50.44552 | 37333 ft | 471 kts | 248° |
| 2026-04-07 20:42 | 62.90852 | -50.58245 | 37334 ft | 471 kts | 247° |
| 2026-04-07 20:42 | 62.88681 | -50.71794 | 37333 ft | 471 kts | 247° |
| 2026-04-07 20:43 | 62.86478 | -50.85445 | 37334 ft | 471 kts | 247° |
| 2026-04-07 20:43 | 62.84280 | -50.98963 | 37329 ft | 471 kts | 247° |
| 2026-04-07 20:44 | 62.82057 | -51.12537 | 37329 ft | 471 kts | 247° |
| 2026-04-07 20:44 | 62.80197 | -51.23820 | 37336 ft | 471 kts | 247° |
| 2026-04-07 20:45 | 62.77950 | -51.37357 | 37336 ft | 471 kts | 246° |
| 2026-04-07 20:45 | 62.75706 | -51.50777 | 37340 ft | 471 kts | 246° |
| 2026-04-07 20:46 | 62.73431 | -51.64284 | 37337 ft | 471 kts | 246° |
| 2026-04-07 20:46 | 62.71153 | -51.77716 | 37342 ft | 471 kts | 246° |
| 2026-04-07 20:47 | 62.68861 | -51.91130 | 37346 ft | 471 kts | 246° |
| 2026-04-07 20:47 | 62.66552 | -52.04553 | 37341 ft | 471 kts | 246° |
| 2026-04-07 20:48 | 62.64242 | -52.17882 | 37342 ft | 471 kts | 246° |
| 2026-04-07 20:48 | 62.61906 | -52.31269 | 37346 ft | 470 kts | 246° |
| 2026-04-07 20:49 | 62.59559 | -52.44626 | 37347 ft | 470 kts | 245° |
| 2026-04-07 20:49 | 62.57215 | -52.57870 | 37341 ft | 470 kts | 245° |
| 2026-04-07 20:50 | 62.54843 | -52.71180 | 37348 ft | 470 kts | 245° |
| 2026-04-07 20:50 | 62.52462 | -52.84453 | 37344 ft | 470 kts | 245° |
| 2026-04-07 20:51 | 62.50087 | -52.97599 | 37354 ft | 470 kts | 245° |
| 2026-04-07 20:51 | 62.47680 | -53.10827 | 37340 ft | 470 kts | 245° |
| 2026-04-07 20:52 | 62.45275 | -53.23965 | 37344 ft | 470 kts | 245° |
| 2026-04-07 20:52 | 62.42851 | -53.37112 | 37357 ft | 470 kts | 245° |
| 2026-04-07 20:53 | 62.40400 | -53.50319 | 37340 ft | 470 kts | 244° |
| 2026-04-07 20:53 | 62.37941 | -53.63475 | 37340 ft | 469 kts | 244° |
| 2026-04-07 20:54 | 62.35492 | -53.76496 | 37347 ft | 469 kts | 244° |
| 2026-04-07 20:54 | 62.33015 | -53.89577 | 37344 ft | 469 kts | 244° |
| 2026-04-07 20:55 | 62.30538 | -54.02570 | 37341 ft | 469 kts | 244° |
| 2026-04-07 20:55 | 62.28039 | -54.15597 | 37338 ft | 469 kts | 244° |
| 2026-04-07 20:56 | 62.25544 | -54.28519 | 37342 ft | 469 kts | 244° |
| 2026-04-07 20:56 | 62.23017 | -54.41519 | 37338 ft | 469 kts | 243° |
| 2026-04-07 20:57 | 62.20480 | -54.54487 | 37332 ft | 469 kts | 243° |
| 2026-04-07 20:57 | 62.17941 | -54.67382 | 37327 ft | 469 kts | 243° |
| 2026-04-07 20:58 | 62.15391 | -54.80254 | 37329 ft | 469 kts | 243° |
| 2026-04-07 20:58 | 62.12817 | -54.93162 | 37322 ft | 469 kts | 243° |
| 2026-04-07 20:59 | 62.10240 | -55.06001 | 37323 ft | 469 kts | 243° |
| 2026-04-07 20:59 | 62.07641 | -55.18869 | 37322 ft | 469 kts | 243° |
| 2026-04-07 21:00 | 62.03731 | -55.38082 | 37316 ft | 469 kts | 243° |
| 2026-04-07 21:01 | 62.01107 | -55.50874 | 37314 ft | 469 kts | 242° |
| 2026-04-07 21:01 | 61.98480 | -55.63599 | 37308 ft | 469 kts | 242° |
| 2026-04-07 21:02 | 61.95824 | -55.76386 | 37306 ft | 469 kts | 242° |
| 2026-04-07 21:02 | 61.93183 | -55.89025 | 37297 ft | 469 kts | 242° |
| 2026-04-07 21:03 | 61.90500 | -56.01788 | 37293 ft | 469 kts | 242° |
| 2026-04-07 21:03 | 61.87832 | -56.14398 | 37292 ft | 469 kts | 242° |
| 2026-04-07 21:04 | 61.85119 | -56.27141 | 37290 ft | 469 kts | 242° |
| 2026-04-07 21:04 | 61.82427 | -56.39714 | 37287 ft | 469 kts | 242° |
| 2026-04-07 21:05 | 61.79706 | -56.52345 | 37280 ft | 469 kts | 242° |
| 2026-04-07 21:05 | 61.76965 | -56.64991 | 37284 ft | 469 kts | 241° |
| 2026-04-07 21:06 | 61.74243 | -56.77478 | 37282 ft | 469 kts | 241° |
| 2026-04-07 21:06 | 61.71481 | -56.90071 | 37282 ft | 469 kts | 241° |
| 2026-04-07 21:07 | 61.68710 | -57.02631 | 37284 ft | 469 kts | 241° |
| 2026-04-07 21:07 | 61.65951 | -57.15056 | 37286 ft | 469 kts | 241° |
| 2026-04-07 21:08 | 61.63164 | -57.27542 | 37292 ft | 468 kts | 241° |
| 2026-04-07 21:08 | 61.60370 | -57.39985 | 37287 ft | 468 kts | 240° |
| 2026-04-07 21:09 | 61.57577 | -57.52348 | 37302 ft | 468 kts | 240° |
| 2026-04-07 21:09 | 61.54758 | -57.64759 | 37306 ft | 468 kts | 240° |
| 2026-04-07 21:10 | 61.51930 | -57.77137 | 37317 ft | 468 kts | 240° |
| 2026-04-07 21:10 | 61.49080 | -57.89528 | 37321 ft | 468 kts | 240° |
| 2026-04-07 21:11 | 61.46115 | -58.01642 | 37326 ft | 466 kts | 236° |
| 2026-04-07 21:11 | 61.42705 | -58.13203 | 37332 ft | 465 kts | 234° |
| 2026-04-07 21:12 | 61.39278 | -58.24625 | 37338 ft | 465 kts | 234° |
| 2026-04-07 21:12 | 61.35819 | -58.36106 | 37347 ft | 464 kts | 234° |
| 2026-04-07 21:13 | 61.32376 | -58.47468 | 37349 ft | 464 kts | 234° |
| 2026-04-07 21:13 | 61.28906 | -58.58863 | 37355 ft | 464 kts | 233° |
| 2026-04-07 21:14 | 61.25422 | -58.70247 | 37366 ft | 464 kts | 233° |
| 2026-04-07 21:14 | 61.21964 | -58.81491 | 37365 ft | 463 kts | 233° |
| 2026-04-07 21:15 | 61.18462 | -58.92818 | 37376 ft | 463 kts | 233° |
| 2026-04-07 21:15 | 61.14972 | -59.04053 | 37381 ft | 463 kts | 233° |
| 2026-04-07 21:16 | 61.11459 | -59.15295 | 37382 ft | 462 kts | 233° |
| 2026-04-07 21:16 | 61.07936 | -59.26521 | 37395 ft | 462 kts | 232° |
| 2026-04-07 21:17 | 61.04432 | -59.37636 | 37395 ft | 462 kts | 232° |
| 2026-04-07 21:17 | 61.00891 | -59.48820 | 37408 ft | 461 kts | 232° |
| 2026-04-07 21:18 | 60.97367 | -59.59890 | 37420 ft | 461 kts | 232° |
| 2026-04-07 21:18 | 60.93821 | -59.70977 | 37415 ft | 461 kts | 232° |
| 2026-04-07 21:19 | 60.90299 | -59.81934 | 37426 ft | 460 kts | 232° |
| 2026-04-07 21:19 | 60.86741 | -59.92959 | 37433 ft | 460 kts | 232° |
| 2026-04-07 21:20 | 60.83169 | -60.03968 | 37440 ft | 459 kts | 232° |
| 2026-04-07 21:20 | 60.79625 | -60.14838 | 37451 ft | 459 kts | 232° |
| 2026-04-07 21:21 | 60.76044 | -60.25782 | 37451 ft | 459 kts | 231° |
| 2026-04-07 21:21 | 60.72465 | -60.36664 | 37461 ft | 458 kts | 231° |
| 2026-04-07 21:22 | 60.68901 | -60.47439 | 37461 ft | 458 kts | 231° |
| 2026-04-07 21:22 | 60.65302 | -60.58277 | 37469 ft | 458 kts | 231° |
| 2026-04-07 21:23 | 60.61718 | -60.69014 | 37466 ft | 458 kts | 231° |
| 2026-04-07 21:23 | 60.58110 | -60.79781 | 37474 ft | 458 kts | 231° |
| 2026-04-07 21:24 | 60.54531 | -60.90406 | 37480 ft | 458 kts | 231° |
| 2026-04-07 21:24 | 60.50889 | -61.01169 | 37489 ft | 458 kts | 231° |
| 2026-04-07 21:25 | 60.47287 | -61.11764 | 37492 ft | 457 kts | 231° |
| 2026-04-07 21:25 | 60.43648 | -61.22425 | 37501 ft | 457 kts | 231° |
| 2026-04-07 21:26 | 60.40003 | -61.33055 | 37506 ft | 457 kts | 231° |
| 2026-04-07 21:26 | 60.36376 | -61.43580 | 37509 ft | 457 kts | 231° |
| 2026-04-07 21:27 | 60.32716 | -61.54156 | 37513 ft | 456 kts | 231° |
| 2026-04-07 21:27 | 60.29074 | -61.64639 | 37518 ft | 456 kts | 230° |
| 2026-04-07 21:28 | 60.25401 | -61.75155 | 37523 ft | 456 kts | 231° |
| 2026-04-07 21:28 | 60.21742 | -61.85586 | 37527 ft | 456 kts | 230° |
| 2026-04-07 21:29 | 60.18052 | -61.96053 | 37532 ft | 456 kts | 231° |
| 2026-04-07 21:29 | 60.14415 | -62.06611 | 37538 ft | 457 kts | 232° |
| 2026-04-07 21:30 | 60.10885 | -62.17306 | 37543 ft | 457 kts | 232° |
| 2026-04-07 21:30 | 60.07374 | -62.27889 | 37550 ft | 457 kts | 232° |
| 2026-04-07 21:31 | 60.04417 | -62.36741 | 37556 ft | 457 kts | 232° |
| 2026-04-07 21:31 | 60.00853 | -62.47348 | 37556 ft | 456 kts | 232° |
| 2026-04-07 21:32 | 59.97292 | -62.57888 | 37560 ft | 457 kts | 232° |
| 2026-04-07 21:32 | 59.93699 | -62.68476 | 37567 ft | 457 kts | 232° |
| 2026-04-07 21:33 | 59.90099 | -62.79046 | 37571 ft | 458 kts | 232° |
| 2026-04-07 21:33 | 59.86491 | -62.89581 | 37575 ft | 458 kts | 232° |
| 2026-04-07 21:34 | 59.82904 | -63.00007 | 37567 ft | 458 kts | 232° |
| 2026-04-07 21:34 | 59.79290 | -63.10466 | 37588 ft | 458 kts | 232° |
| 2026-04-07 21:35 | 59.75652 | -63.20941 | 37581 ft | 458 kts | 232° |
| 2026-04-07 21:35 | 59.72003 | -63.31408 | 37581 ft | 458 kts | 232° |
| 2026-04-07 21:36 | 59.68382 | -63.41748 | 37588 ft | 458 kts | 232° |
| 2026-04-07 21:36 | 59.64716 | -63.52167 | 37595 ft | 459 kts | 232° |
| 2026-04-07 21:37 | 59.61055 | -63.62528 | 37601 ft | 460 kts | 232° |
| 2026-04-07 21:37 | 59.57362 | -63.72938 | 37608 ft | 460 kts | 232° |
| 2026-04-07 21:38 | 59.53684 | -63.83261 | 37624 ft | 460 kts | 232° |
| 2026-04-07 21:38 | 59.49984 | -63.93603 | 37635 ft | 458 kts | 232° |
| 2026-04-07 21:39 | 59.46277 | -64.03915 | 37649 ft | 457 kts | 232° |
| 2026-04-07 21:39 | 59.42600 | -64.14097 | 37674 ft | 456 kts | 232° |
| 2026-04-07 21:40 | 59.38902 | -64.24290 | 37686 ft | 455 kts | 232° |
| 2026-04-07 21:40 | 59.35203 | -64.34440 | 37710 ft | 455 kts | 232° |
| 2026-04-07 21:41 | 59.31523 | -64.44495 | 37722 ft | 455 kts | 232° |
| 2026-04-07 21:41 | 59.27782 | -64.54676 | 37733 ft | 455 kts | 232° |
| 2026-04-07 21:42 | 59.24053 | -64.64777 | 37746 ft | 456 kts | 232° |
| 2026-04-07 21:42 | 59.20339 | -64.74800 | 37756 ft | 456 kts | 232° |
| 2026-04-07 21:43 | 59.16582 | -64.84894 | 37767 ft | 457 kts | 232° |
| 2026-04-07 21:43 | 59.12840 | -64.94906 | 37775 ft | 457 kts | 232° |
| 2026-04-07 21:44 | 59.09041 | -65.05026 | 37778 ft | 458 kts | 232° |
| 2026-04-07 21:44 | 59.05280 | -65.15006 | 37782 ft | 458 kts | 232° |
| 2026-04-07 21:45 | 59.01479 | -65.25048 | 37788 ft | 458 kts | 232° |
| 2026-04-07 21:45 | 58.97673 | -65.35059 | 37795 ft | 458 kts | 232° |
| 2026-04-07 21:46 | 58.93873 | -65.45014 | 37799 ft | 458 kts | 232° |
| 2026-04-07 21:46 | 58.90055 | -65.54973 | 37801 ft | 458 kts | 232° |
| 2026-04-07 21:47 | 58.86214 | -65.64950 | 37800 ft | 458 kts | 232° |
| 2026-04-07 21:47 | 58.82412 | -65.74782 | 37807 ft | 458 kts | 232° |
| 2026-04-07 21:48 | 58.78559 | -65.84705 | 37809 ft | 458 kts | 232° |
| 2026-04-07 21:48 | 58.74721 | -65.94549 | 37812 ft | 458 kts | 232° |
| 2026-04-07 21:49 | 58.70886 | -66.04344 | 37796 ft | 457 kts | 232° |
| 2026-04-07 21:49 | 58.67017 | -66.14186 | 37820 ft | 457 kts | 231° |
| 2026-04-07 21:50 | 58.63155 | -66.23968 | 37803 ft | 457 kts | 231° |
| 2026-04-07 21:50 | 58.59313 | -66.33662 | 37811 ft | 457 kts | 231° |
| 2026-04-07 21:51 | 58.55434 | -66.43408 | 37812 ft | 457 kts | 231° |
| 2026-04-07 21:51 | 58.51580 | -66.53051 | 37818 ft | 457 kts | 231° |
| 2026-04-07 21:52 | 58.47687 | -66.62751 | 37822 ft | 457 kts | 231° |
| 2026-04-07 21:52 | 58.43818 | -66.72353 | 37824 ft | 457 kts | 231° |
| 2026-04-07 21:53 | 58.39892 | -66.82057 | 37829 ft | 457 kts | 231° |
| 2026-04-07 21:53 | 58.35964 | -66.91728 | 37837 ft | 457 kts | 231° |
| 2026-04-07 21:54 | 58.32064 | -67.01289 | 37841 ft | 457 kts | 231° |
| 2026-04-07 21:54 | 58.28128 | -67.10900 | 37840 ft | 456 kts | 231° |
| 2026-04-07 21:55 | 58.24237 | -67.20361 | 37847 ft | 456 kts | 231° |
| 2026-04-07 21:55 | 58.20312 | -67.29868 | 37847 ft | 456 kts | 231° |
| 2026-04-07 21:56 | 58.16394 | -67.39321 | 37852 ft | 456 kts | 231° |
| 2026-04-07 21:56 | 58.12435 | -67.48833 | 37862 ft | 456 kts | 231° |
| 2026-04-07 21:57 | 58.08509 | -67.58229 | 37859 ft | 456 kts | 231° |
| 2026-04-07 21:57 | 58.04544 | -67.67682 | 37866 ft | 456 kts | 231° |
| 2026-04-07 21:58 | 58.00582 | -67.77091 | 37870 ft | 456 kts | 231° |
| 2026-04-07 21:58 | 57.96630 | -67.86437 | 37868 ft | 456 kts | 231° |
| 2026-04-07 21:59 | 57.92645 | -67.95824 | 37871 ft | 456 kts | 231° |
| 2026-04-07 21:59 | 57.88681 | -68.05126 | 37872 ft | 456 kts | 231° |
| 2026-04-07 22:00 | 57.84684 | -68.14467 | 37873 ft | 456 kts | 231° |
| 2026-04-07 22:00 | 57.80685 | -68.23777 | 37877 ft | 456 kts | 231° |
| 2026-04-07 22:01 | 57.76711 | -68.32994 | 37885 ft | 455 kts | 231° |
| 2026-04-07 22:01 | 57.72693 | -68.42276 | 37884 ft | 455 kts | 231° |
| 2026-04-07 22:02 | 57.68676 | -68.51520 | 37889 ft | 455 kts | 231° |
| 2026-04-07 22:02 | 57.64657 | -68.60730 | 37898 ft | 455 kts | 231° |
| 2026-04-07 22:02 | 57.62661 | -68.65294 | 37595 ft | 455 kts | 230° |
| 2026-04-07 22:03 | 57.60658 | -68.69865 | 37929 ft | 455 kts | 231° |
| 2026-04-07 22:03 | 57.54591 | -68.83640 | 37901 ft | 455 kts | 231° |
| 2026-04-07 22:04 | 57.50579 | -68.92710 | 37903 ft | 455 kts | 231° |
| 2026-04-07 22:04 | 57.46519 | -69.01855 | 37901 ft | 455 kts | 231° |
| 2026-04-07 22:05 | 57.42462 | -69.10958 | 37910 ft | 455 kts | 230° |
| 2026-04-07 22:05 | 57.38389 | -69.20063 | 37905 ft | 455 kts | 230° |
| 2026-04-07 22:06 | 57.34353 | -69.29052 | 37914 ft | 454 kts | 230° |
| 2026-04-07 22:06 | 57.30287 | -69.38072 | 37907 ft | 454 kts | 230° |
| 2026-04-07 22:07 | 57.26213 | -69.47074 | 37914 ft | 454 kts | 230° |
| 2026-04-07 22:07 | 57.22161 | -69.55997 | 37930 ft | 454 kts | 230° |
| 2026-04-07 22:08 | 57.18079 | -69.64950 | 37927 ft | 453 kts | 230° |
| 2026-04-07 22:08 | 57.14013 | -69.73836 | 37930 ft | 453 kts | 230° |
| 2026-04-07 22:09 | 57.09911 | -69.82767 | 37930 ft | 453 kts | 230° |
| 2026-04-07 22:09 | 57.05839 | -69.91597 | 37936 ft | 453 kts | 230° |
| 2026-04-07 22:10 | 57.01740 | -70.00455 | 37938 ft | 453 kts | 230° |
| 2026-04-07 22:10 | 56.97620 | -70.09326 | 37939 ft | 453 kts | 230° |
| 2026-04-07 22:11 | 56.93531 | -70.18095 | 37947 ft | 453 kts | 230° |
| 2026-04-07 22:11 | 56.89413 | -70.26895 | 37949 ft | 453 kts | 230° |
| 2026-04-07 22:12 | 56.85287 | -70.35680 | 37954 ft | 453 kts | 230° |
| 2026-04-07 22:12 | 56.81172 | -70.44408 | 37952 ft | 453 kts | 230° |
| 2026-04-07 22:13 | 56.77032 | -70.53156 | 37961 ft | 453 kts | 230° |
| 2026-04-07 22:13 | 56.72883 | -70.61894 | 37961 ft | 453 kts | 230° |
| 2026-04-07 22:14 | 56.68736 | -70.70595 | 37971 ft | 453 kts | 230° |
| 2026-04-07 22:14 | 56.64606 | -70.79227 | 37972 ft | 453 kts | 230° |
| 2026-04-07 22:15 | 56.60436 | -70.87913 | 37975 ft | 453 kts | 230° |
| 2026-04-07 22:15 | 56.56289 | -70.96517 | 37977 ft | 453 kts | 230° |
| 2026-04-07 22:16 | 56.52809 | -71.03714 | 37984 ft | 453 kts | 230° |
| 2026-04-07 22:16 | 56.47941 | -71.13746 | 37977 ft | 453 kts | 230° |
| 2026-04-07 22:17 | 56.44465 | -71.20882 | 37986 ft | 453 kts | 230° |
| 2026-04-07 22:17 | 56.40274 | -71.29460 | 37984 ft | 453 kts | 230° |
| 2026-04-07 22:18 | 56.36102 | -71.37967 | 37996 ft | 452 kts | 230° |
| 2026-04-07 22:18 | 56.31920 | -71.46464 | 37986 ft | 452 kts | 229° |
| 2026-04-07 22:19 | 56.27706 | -71.54994 | 37999 ft | 452 kts | 229° |
| 2026-04-07 22:19 | 56.23516 | -71.63446 | 37997 ft | 453 kts | 229° |
| 2026-04-07 22:20 | 56.19298 | -71.71924 | 38003 ft | 453 kts | 229° |
| 2026-04-07 22:20 | 56.15074 | -71.80385 | 38005 ft | 452 kts | 229° |
| 2026-04-07 22:21 | 56.10874 | -71.88768 | 38019 ft | 452 kts | 229° |
| 2026-04-07 22:21 | 56.06648 | -71.97172 | 38014 ft | 452 kts | 229° |
| 2026-04-07 22:22 | 56.02392 | -72.05607 | 38018 ft | 452 kts | 229° |
| 2026-04-07 22:22 | 55.98174 | -72.13937 | 38016 ft | 452 kts | 229° |
| 2026-04-07 22:23 | 55.93926 | -72.22295 | 38022 ft | 452 kts | 229° |
| 2026-04-07 22:23 | 55.89685 | -72.30611 | 38017 ft | 452 kts | 229° |
| 2026-04-07 22:24 | 55.85446 | -72.38895 | 38027 ft | 452 kts | 229° |
| 2026-04-07 22:24 | 55.81170 | -72.47221 | 38025 ft | 452 kts | 229° |
| 2026-04-07 22:25 | 55.76913 | -72.55482 | 38027 ft | 452 kts | 229° |
| 2026-04-07 22:25 | 55.72636 | -72.63751 | 38026 ft | 452 kts | 229° |
| 2026-04-07 22:26 | 55.68356 | -72.72000 | 38031 ft | 452 kts | 229° |
| 2026-04-07 22:26 | 55.64071 | -72.80226 | 38031 ft | 452 kts | 229° |
| 2026-04-07 22:27 | 55.59797 | -72.88405 | 38037 ft | 452 kts | 229° |
| 2026-04-07 22:27 | 55.55496 | -72.96607 | 38040 ft | 452 kts | 229° |
| 2026-04-07 22:28 | 55.51211 | -73.04751 | 38042 ft | 452 kts | 229° |
| 2026-04-07 22:28 | 55.46902 | -73.12913 | 38043 ft | 452 kts | 229° |
| 2026-04-07 22:29 | 55.42620 | -73.20994 | 38049 ft | 452 kts | 229° |
| 2026-04-07 22:29 | 55.38309 | -73.29104 | 38048 ft | 452 kts | 229° |
| 2026-04-07 22:30 | 55.33990 | -73.37200 | 38052 ft | 452 kts | 229° |
| 2026-04-07 22:30 | 55.29688 | -73.45237 | 38048 ft | 452 kts | 229° |
| 2026-04-07 22:31 | 55.25360 | -73.53296 | 38058 ft | 452 kts | 229° |
| 2026-04-07 22:31 | 55.21024 | -73.61342 | 38053 ft | 452 kts | 228° |
| 2026-04-07 22:32 | 55.16671 | -73.69386 | 38075 ft | 453 kts | 229° |
| 2026-04-07 22:32 | 55.12347 | -73.77371 | 38066 ft | 454 kts | 229° |
| 2026-04-07 22:33 | 55.10149 | -73.81418 | 38214 ft | 458 kts | 229° |
| 2026-04-07 22:33 | 55.07974 | -73.85412 | 38569 ft | 456 kts | 229° |
| 2026-04-07 22:33 | 55.05753 | -73.89479 | 38885 ft | 455 kts | 229° |
| 2026-04-07 22:33 | 55.03579 | -73.93453 | 39130 ft | 454 kts | 229° |
| 2026-04-07 22:34 | 55.01379 | -73.97412 | 39336 ft | 455 kts | 227° |
| 2026-04-07 22:34 | 54.99047 | -74.01244 | 39568 ft | 456 kts | 225° |
| 2026-04-07 22:34 | 54.96612 | -74.04855 | 39788 ft | 456 kts | 223° |
| 2026-04-07 22:34 | 54.94155 | -74.08367 | 39997 ft | 456 kts | 223° |
| 2026-04-07 22:35 | 54.89249 | -74.15419 | 40066 ft | 456 kts | 223° |
| 2026-04-07 22:35 | 54.84339 | -74.22452 | 40066 ft | 456 kts | 223° |
| 2026-04-07 22:36 | 54.79416 | -74.29476 | 40073 ft | 456 kts | 223° |
| 2026-04-07 22:36 | 54.74522 | -74.36437 | 40077 ft | 456 kts | 223° |
| 2026-04-07 22:37 | 54.69590 | -74.43427 | 40080 ft | 456 kts | 223° |
| 2026-04-07 22:37 | 54.64684 | -74.50357 | 40085 ft | 456 kts | 223° |
| 2026-04-07 22:38 | 54.59728 | -74.57335 | 40086 ft | 456 kts | 223° |
| 2026-04-07 22:38 | 54.54792 | -74.64262 | 40086 ft | 456 kts | 223° |
| 2026-04-07 22:39 | 54.49822 | -74.71215 | 40092 ft | 456 kts | 223° |
| 2026-04-07 22:39 | 54.44907 | -74.78068 | 40100 ft | 456 kts | 223° |
| 2026-04-07 22:40 | 54.39956 | -74.84951 | 40099 ft | 455 kts | 223° |
| 2026-04-07 22:40 | 54.35035 | -74.91769 | 40106 ft | 455 kts | 223° |
| 2026-04-07 22:41 | 54.30059 | -74.98641 | 40106 ft | 455 kts | 223° |
| 2026-04-07 22:41 | 54.25108 | -75.05458 | 40109 ft | 455 kts | 223° |
| 2026-04-07 22:42 | 54.20138 | -75.12278 | 40113 ft | 455 kts | 223° |
| 2026-04-07 22:42 | 54.15169 | -75.19076 | 40117 ft | 455 kts | 223° |
| 2026-04-07 22:43 | 54.10173 | -75.25890 | 40116 ft | 455 kts | 223° |
| 2026-04-07 22:43 | 54.05232 | -75.32605 | 40122 ft | 455 kts | 223° |
| 2026-04-07 22:44 | 54.00236 | -75.39375 | 40121 ft | 455 kts | 223° |
| 2026-04-07 22:44 | 53.95281 | -75.46068 | 40130 ft | 455 kts | 223° |
| 2026-04-07 22:45 | 53.90282 | -75.52800 | 40128 ft | 455 kts | 223° |
| 2026-04-07 22:45 | 53.85313 | -75.59470 | 40132 ft | 455 kts | 223° |
| 2026-04-07 22:46 | 53.80319 | -75.66154 | 40137 ft | 455 kts | 223° |
| 2026-04-07 22:46 | 53.75318 | -75.72825 | 40140 ft | 456 kts | 223° |
| 2026-04-07 22:47 | 53.70359 | -75.79419 | 40139 ft | 456 kts | 223° |
| 2026-04-07 22:47 | 53.65350 | -75.86060 | 40144 ft | 456 kts | 223° |
| 2026-04-07 22:48 | 53.60338 | -75.92684 | 40150 ft | 456 kts | 223° |
| 2026-04-07 22:48 | 53.55373 | -75.99227 | 40153 ft | 456 kts | 223° |
| 2026-04-07 22:49 | 53.50355 | -76.05818 | 40167 ft | 456 kts | 223° |
| 2026-04-07 22:49 | 53.45365 | -76.12352 | 40168 ft | 456 kts | 223° |
| 2026-04-07 22:50 | 53.40341 | -76.18912 | 40174 ft | 456 kts | 223° |
| 2026-04-07 22:50 | 53.35305 | -76.25467 | 40174 ft | 456 kts | 223° |
| 2026-04-07 22:51 | 53.30303 | -76.31956 | 40177 ft | 456 kts | 223° |
| 2026-04-07 22:51 | 53.25269 | -76.38467 | 40180 ft | 456 kts | 223° |
| 2026-04-07 22:52 | 53.20209 | -76.44993 | 40187 ft | 456 kts | 223° |
| 2026-04-07 22:52 | 53.15194 | -76.51440 | 40189 ft | 456 kts | 223° |
| 2026-04-07 22:53 | 53.10131 | -76.57931 | 40189 ft | 456 kts | 223° |
| 2026-04-07 22:53 | 53.05087 | -76.64376 | 40197 ft | 456 kts | 223° |
| 2026-04-07 22:54 | 53.00053 | -76.70789 | 40197 ft | 457 kts | 223° |
| 2026-04-07 22:54 | 52.94976 | -76.77238 | 40198 ft | 457 kts | 223° |
| 2026-04-07 22:55 | 52.89941 | -76.83614 | 40208 ft | 457 kts | 223° |
| 2026-04-07 22:55 | 52.84857 | -76.90032 | 40209 ft | 457 kts | 223° |
| 2026-04-07 22:56 | 52.79793 | -76.96407 | 40221 ft | 457 kts | 223° |
| 2026-04-07 22:56 | 52.74690 | -77.02809 | 40220 ft | 457 kts | 223° |
| 2026-04-07 22:57 | 52.69602 | -77.09176 | 40219 ft | 458 kts | 223° |
| 2026-04-07 22:57 | 52.64527 | -77.15506 | 40217 ft | 458 kts | 223° |
| 2026-04-07 22:58 | 52.59432 | -77.21843 | 40221 ft | 458 kts | 223° |
| 2026-04-07 22:58 | 52.54320 | -77.28181 | 40221 ft | 458 kts | 223° |
| 2026-04-07 22:59 | 52.49241 | -77.34460 | 40230 ft | 458 kts | 222° |
| 2026-04-07 22:59 | 52.44131 | -77.40758 | 40228 ft | 458 kts | 222° |
| 2026-04-07 23:00 | 52.39013 | -77.47048 | 40232 ft | 458 kts | 222° |
| 2026-04-07 23:00 | 52.33915 | -77.53295 | 40234 ft | 458 kts | 222° |
| 2026-04-07 23:01 | 52.28795 | -77.59549 | 40233 ft | 458 kts | 222° |
| 2026-04-07 23:02 | 52.21119 | -77.68892 | 40234 ft | 458 kts | 222° |
| 2026-04-07 23:02 | 52.15991 | -77.75112 | 40237 ft | 458 kts | 222° |
| 2026-04-07 23:03 | 52.11708 | -77.80290 | 40234 ft | 458 kts | 222° |
| 2026-04-07 23:03 | 52.06561 | -77.86499 | 40236 ft | 458 kts | 222° |
| 2026-04-07 23:04 | 52.01423 | -77.92678 | 40242 ft | 459 kts | 222° |
| 2026-04-07 23:04 | 51.96293 | -77.98830 | 40241 ft | 459 kts | 222° |
| 2026-04-07 23:05 | 51.91134 | -78.04999 | 40239 ft | 459 kts | 222° |
| 2026-04-07 23:05 | 51.86010 | -78.11107 | 40240 ft | 459 kts | 222° |
| 2026-04-07 23:06 | 51.80842 | -78.17250 | 40239 ft | 459 kts | 222° |
| 2026-04-07 23:06 | 51.75700 | -78.23345 | 40240 ft | 459 kts | 222° |
| 2026-04-07 23:07 | 51.70523 | -78.29463 | 40240 ft | 459 kts | 222° |
| 2026-04-07 23:07 | 51.65315 | -78.35600 | 40243 ft | 459 kts | 222° |
| 2026-04-07 23:08 | 51.60149 | -78.41670 | 40238 ft | 459 kts | 222° |
| 2026-04-07 23:08 | 51.55013 | -78.47703 | 40233 ft | 459 kts | 222° |
| 2026-04-07 23:09 | 51.49829 | -78.53762 | 40238 ft | 459 kts | 222° |
| 2026-04-07 23:09 | 51.44621 | -78.59819 | 40238 ft | 459 kts | 222° |
| 2026-04-07 23:10 | 51.39463 | -78.65806 | 40240 ft | 459 kts | 222° |
| 2026-04-07 23:10 | 51.34257 | -78.71834 | 40242 ft | 459 kts | 222° |
| 2026-04-07 23:11 | 51.29073 | -78.77820 | 40244 ft | 459 kts | 222° |
| 2026-04-07 23:11 | 51.23878 | -78.83802 | 40237 ft | 459 kts | 222° |
| 2026-04-07 23:12 | 51.18702 | -78.89747 | 40244 ft | 459 kts | 222° |
| 2026-04-07 23:12 | 51.13486 | -78.95719 | 40241 ft | 459 kts | 222° |
| 2026-04-07 23:13 | 51.08290 | -79.01653 | 40252 ft | 459 kts | 222° |
| 2026-04-07 23:13 | 51.03078 | -79.07587 | 40250 ft | 459 kts | 222° |
| 2026-04-07 23:14 | 50.97867 | -79.13504 | 40255 ft | 459 kts | 222° |
| 2026-04-07 23:14 | 50.92647 | -79.19415 | 40256 ft | 459 kts | 222° |
| 2026-04-07 23:15 | 50.87414 | -79.25324 | 40261 ft | 459 kts | 222° |
| 2026-04-07 23:15 | 50.82223 | -79.31168 | 40264 ft | 459 kts | 222° |
| 2026-04-07 23:16 | 50.76984 | -79.37050 | 40265 ft | 459 kts | 222° |
| 2026-04-07 23:16 | 50.71788 | -79.42868 | 40270 ft | 459 kts | 222° |
| 2026-04-07 23:17 | 50.66559 | -79.48706 | 40269 ft | 459 kts | 222° |
| 2026-04-07 23:17 | 50.61340 | -79.54518 | 40275 ft | 459 kts | 222° |
| 2026-04-07 23:18 | 50.56088 | -79.60350 | 40277 ft | 460 kts | 222° |
| 2026-04-07 23:18 | 50.50831 | -79.66171 | 40279 ft | 460 kts | 222° |
| 2026-04-07 23:19 | 50.45621 | -79.71925 | 40281 ft | 460 kts | 222° |
| 2026-04-07 23:19 | 50.40355 | -79.77724 | 40277 ft | 460 kts | 222° |
| 2026-04-07 23:20 | 50.35125 | -79.83468 | 40279 ft | 460 kts | 222° |
| 2026-04-07 23:20 | 50.29858 | -79.89239 | 40278 ft | 460 kts | 222° |
| 2026-04-07 23:21 | 50.24611 | -79.94969 | 40289 ft | 460 kts | 222° |
| 2026-04-07 23:21 | 50.19368 | -80.00810 | 40288 ft | 458 kts | 225° |
| 2026-04-07 23:22 | 50.14424 | -80.06985 | 40289 ft | 457 kts | 226° |
| 2026-04-07 23:22 | 50.09435 | -80.13211 | 40291 ft | 457 kts | 226° |
| 2026-04-07 23:23 | 50.04443 | -80.19428 | 40295 ft | 457 kts | 226° |
| 2026-04-07 23:23 | 49.99491 | -80.25579 | 40296 ft | 457 kts | 226° |
| 2026-04-07 23:24 | 49.94494 | -80.31771 | 40296 ft | 457 kts | 226° |
| 2026-04-07 23:24 | 49.89521 | -80.37917 | 40299 ft | 457 kts | 226° |
| 2026-04-07 23:25 | 49.84539 | -80.44060 | 40303 ft | 457 kts | 226° |
| 2026-04-07 23:25 | 49.79559 | -80.50181 | 40303 ft | 457 kts | 226° |
| 2026-04-07 23:26 | 49.74556 | -80.56315 | 40308 ft | 457 kts | 226° |
| 2026-04-07 23:26 | 49.69592 | -80.62385 | 40306 ft | 457 kts | 225° |
| 2026-04-07 23:27 | 49.64574 | -80.68504 | 40312 ft | 457 kts | 225° |
| 2026-04-07 23:27 | 49.59583 | -80.74575 | 40318 ft | 457 kts | 225° |
| 2026-04-07 23:28 | 49.54569 | -80.80655 | 40321 ft | 457 kts | 225° |
| 2026-04-07 23:28 | 49.49540 | -80.86738 | 40325 ft | 457 kts | 225° |
| 2026-04-07 23:29 | 49.44555 | -80.92753 | 40325 ft | 457 kts | 225° |
| 2026-04-07 23:29 | 49.39516 | -80.98815 | 40324 ft | 457 kts | 225° |
| 2026-04-07 23:30 | 49.34500 | -81.04834 | 40328 ft | 457 kts | 225° |
| 2026-04-07 23:30 | 49.29457 | -81.10870 | 40329 ft | 457 kts | 225° |
| 2026-04-07 23:31 | 49.24407 | -81.16898 | 40331 ft | 457 kts | 225° |
| 2026-04-07 23:31 | 49.19399 | -81.22859 | 40337 ft | 457 kts | 225° |
| 2026-04-07 23:32 | 49.14338 | -81.28868 | 40340 ft | 457 kts | 225° |
| 2026-04-07 23:32 | 49.09310 | -81.34822 | 40342 ft | 457 kts | 225° |
| 2026-04-07 23:33 | 49.04241 | -81.40808 | 40343 ft | 458 kts | 225° |
| 2026-04-07 23:33 | 48.99181 | -81.46767 | 40341 ft | 458 kts | 225° |
| 2026-04-07 23:34 | 48.94154 | -81.52674 | 40344 ft | 457 kts | 225° |
| 2026-04-07 23:34 | 48.89089 | -81.58609 | 40337 ft | 457 kts | 225° |
| 2026-04-07 23:35 | 48.84037 | -81.64513 | 40334 ft | 457 kts | 225° |
| 2026-04-07 23:35 | 48.79000 | -81.70384 | 40336 ft | 457 kts | 225° |
| 2026-04-07 23:36 | 48.73934 | -81.76273 | 40340 ft | 457 kts | 225° |
| 2026-04-07 23:36 | 48.68861 | -81.82157 | 40344 ft | 457 kts | 225° |
| 2026-04-07 23:37 | 48.63779 | -81.88035 | 40357 ft | 457 kts | 225° |
| 2026-04-07 23:37 | 48.58735 | -81.93852 | 40365 ft | 457 kts | 225° |
| 2026-04-07 23:38 | 48.53663 | -81.99688 | 40364 ft | 457 kts | 225° |
| 2026-04-07 23:38 | 48.48587 | -82.05514 | 40364 ft | 456 kts | 225° |
| 2026-04-07 23:39 | 48.43538 | -82.11293 | 40364 ft | 456 kts | 225° |
| 2026-04-07 23:39 | 48.38479 | -82.17069 | 40381 ft | 456 kts | 225° |
| 2026-04-07 23:40 | 48.33399 | -82.22855 | 40381 ft | 456 kts | 225° |
| 2026-04-07 23:40 | 48.28309 | -82.28636 | 40385 ft | 456 kts | 225° |
| 2026-04-07 23:41 | 48.23253 | -82.34365 | 40388 ft | 456 kts | 225° |
| 2026-04-07 23:41 | 48.18150 | -82.40131 | 40394 ft | 456 kts | 224° |
| 2026-04-07 23:42 | 48.13052 | -82.45877 | 40399 ft | 455 kts | 224° |
| 2026-04-07 23:42 | 48.07960 | -82.51602 | 40399 ft | 455 kts | 224° |
| 2026-04-07 23:43 | 48.02902 | -82.57274 | 40406 ft | 455 kts | 224° |
| 2026-04-07 23:43 | 47.97798 | -82.62984 | 40409 ft | 455 kts | 224° |
| 2026-04-07 23:44 | 47.92731 | -82.68638 | 40417 ft | 455 kts | 224° |
| 2026-04-07 23:44 | 47.87599 | -82.74350 | 40418 ft | 455 kts | 224° |
| 2026-04-07 23:45 | 47.82502 | -82.80010 | 40419 ft | 455 kts | 224° |
| 2026-04-07 23:45 | 47.77430 | -82.85627 | 40419 ft | 455 kts | 224° |
| 2026-04-07 23:46 | 47.72324 | -82.91267 | 40408 ft | 455 kts | 224° |
| 2026-04-07 23:46 | 47.67169 | -82.96948 | 40408 ft | 455 kts | 224° |
| 2026-04-07 23:47 | 47.62058 | -83.02565 | 40411 ft | 455 kts | 224° |
| 2026-04-07 23:47 | 47.56941 | -83.08176 | 40419 ft | 455 kts | 224° |
| 2026-04-07 23:48 | 47.51855 | -83.13739 | 40442 ft | 456 kts | 224° |
| 2026-04-07 23:48 | 47.47592 | -83.18391 | 40449 ft | 456 kts | 224° |
| 2026-04-07 23:49 | 47.42459 | -83.23979 | 40442 ft | 456 kts | 224° |
| 2026-04-07 23:49 | 47.37324 | -83.29556 | 40448 ft | 456 kts | 224° |
| 2026-04-07 23:50 | 47.32223 | -83.35082 | 40442 ft | 456 kts | 224° |
| 2026-04-07 23:50 | 47.27081 | -83.40639 | 40451 ft | 456 kts | 224° |
| 2026-04-07 23:51 | 47.21966 | -83.46154 | 40450 ft | 456 kts | 224° |
| 2026-04-07 23:51 | 47.16810 | -83.51699 | 40454 ft | 456 kts | 224° |
| 2026-04-07 23:52 | 47.11688 | -83.57194 | 40452 ft | 456 kts | 224° |
| 2026-04-07 23:52 | 47.06533 | -83.62712 | 40452 ft | 457 kts | 224° |
| 2026-04-07 23:53 | 47.01376 | -83.68218 | 40455 ft | 457 kts | 224° |
| 2026-04-07 23:53 | 46.96222 | -83.73707 | 40465 ft | 457 kts | 224° |
| 2026-04-07 23:54 | 46.91069 | -83.79182 | 40458 ft | 457 kts | 224° |
| 2026-04-07 23:54 | 46.85941 | -83.84617 | 40456 ft | 457 kts | 224° |
| 2026-04-07 23:55 | 46.80762 | -83.90093 | 40450 ft | 457 kts | 224° |
| 2026-04-07 23:55 | 46.75583 | -83.95556 | 40446 ft | 457 kts | 224° |
| 2026-04-07 23:56 | 46.70432 | -84.00977 | 40447 ft | 456 kts | 224° |
| 2026-04-07 23:56 | 46.65251 | -84.06416 | 40442 ft | 456 kts | 224° |
| 2026-04-07 23:57 | 46.60093 | -84.11818 | 40434 ft | 456 kts | 224° |
| 2026-04-07 23:57 | 46.54950 | -84.17191 | 40431 ft | 455 kts | 224° |
| 2026-04-07 23:58 | 46.49783 | -84.22574 | 40426 ft | 455 kts | 223° |
| 2026-04-07 23:58 | 46.44386 | -84.27481 | 40425 ft | 463 kts | 217° |
| 2026-04-07 23:59 | 46.38510 | -84.31524 | 40426 ft | 470 kts | 210° |
| 2026-04-07 23:59 | 46.32230 | -84.34577 | 40445 ft | 478 kts | 203° |
| 2026-04-08 00:00 | 46.25747 | -84.36834 | 40445 ft | 479 kts | 201° |
| 2026-04-08 00:00 | 46.19203 | -84.39078 | 40444 ft | 479 kts | 201° |
| 2026-04-08 00:01 | 46.12688 | -84.41321 | 40450 ft | 479 kts | 201° |
| 2026-04-08 00:01 | 46.06239 | -84.43540 | 40462 ft | 479 kts | 201° |
| 2026-04-08 00:02 | 45.99709 | -84.45782 | 40456 ft | 479 kts | 201° |
| 2026-04-08 00:02 | 45.93239 | -84.47998 | 40454 ft | 479 kts | 201° |
| 2026-04-08 00:03 | 45.86727 | -84.50223 | 40436 ft | 479 kts | 201° |
| 2026-04-08 00:03 | 45.77020 | -84.53531 | 40450 ft | 478 kts | 201° |
| 2026-04-08 00:04 | 45.70514 | -84.55741 | 40452 ft | 478 kts | 201° |
| 2026-04-08 00:04 | 45.64057 | -84.57930 | 40450 ft | 478 kts | 201° |
| 2026-04-08 00:05 | 45.57564 | -84.60125 | 40454 ft | 478 kts | 201° |
| 2026-04-08 00:05 | 45.51066 | -84.62316 | 40457 ft | 478 kts | 201° |
| 2026-04-08 00:06 | 45.44605 | -84.64491 | 40468 ft | 478 kts | 201° |
| 2026-04-08 00:06 | 45.38105 | -84.66674 | 40474 ft | 477 kts | 201° |
| 2026-04-08 00:07 | 45.31664 | -84.68832 | 40474 ft | 477 kts | 201° |
| 2026-04-08 00:07 | 45.25181 | -84.70997 | 40463 ft | 477 kts | 201° |
| 2026-04-08 00:08 | 45.18689 | -84.73154 | 40456 ft | 477 kts | 201° |
| 2026-04-08 00:08 | 45.12227 | -84.75299 | 40420 ft | 477 kts | 201° |
| 2026-04-08 00:09 | 45.05740 | -84.77449 | 40416 ft | 477 kts | 201° |
| 2026-04-08 00:09 | 44.99246 | -84.79597 | 40414 ft | 477 kts | 201° |
| 2026-04-08 00:10 | 44.92806 | -84.81721 | 40420 ft | 477 kts | 201° |
| 2026-04-08 00:10 | 44.86305 | -84.83861 | 40435 ft | 477 kts | 201° |
| 2026-04-08 00:11 | 44.79822 | -84.85991 | 40426 ft | 476 kts | 201° |
| 2026-04-08 00:11 | 44.73338 | -84.88115 | 40414 ft | 476 kts | 201° |
| 2026-04-08 00:12 | 44.66851 | -84.90236 | 40417 ft | 476 kts | 201° |
| 2026-04-08 00:12 | 44.60427 | -84.92331 | 40422 ft | 476 kts | 201° |
| 2026-04-08 00:13 | 44.53862 | -84.94468 | 40432 ft | 476 kts | 201° |
| 2026-04-08 00:13 | 44.47437 | -84.96555 | 40446 ft | 476 kts | 201° |
| 2026-04-08 00:14 | 44.40943 | -84.98659 | 40453 ft | 476 kts | 201° |
| 2026-04-08 00:14 | 44.34481 | -85.00748 | 40453 ft | 475 kts | 201° |
| 2026-04-08 00:15 | 44.28048 | -85.02823 | 40459 ft | 475 kts | 201° |
| 2026-04-08 00:15 | 44.21572 | -85.04908 | 40450 ft | 475 kts | 201° |
| 2026-04-08 00:16 | 44.15170 | -85.06965 | 40451 ft | 475 kts | 201° |
| 2026-04-08 00:16 | 44.08721 | -85.09031 | 40456 ft | 474 kts | 201° |
| 2026-04-08 00:17 | 44.02310 | -85.11077 | 40468 ft | 474 kts | 200° |
| 2026-04-08 00:17 | 43.95819 | -85.13143 | 40476 ft | 474 kts | 200° |
| 2026-04-08 00:18 | 43.89368 | -85.15194 | 40471 ft | 473 kts | 200° |
| 2026-04-08 00:18 | 43.82955 | -85.17229 | 40465 ft | 473 kts | 200° |
| 2026-04-08 00:19 | 43.76534 | -85.19263 | 40456 ft | 473 kts | 200° |
| 2026-04-08 00:19 | 43.70083 | -85.21301 | 40457 ft | 472 kts | 200° |
| 2026-04-08 00:20 | 43.63710 | -85.23306 | 40457 ft | 472 kts | 200° |
| 2026-04-08 00:20 | 43.57299 | -85.25321 | 40462 ft | 472 kts | 200° |
| 2026-04-08 00:21 | 43.50878 | -85.27335 | 40467 ft | 471 kts | 200° |
| 2026-04-08 00:21 | 43.44508 | -85.29331 | 40475 ft | 471 kts | 200° |
| 2026-04-08 00:22 | 43.38095 | -85.31335 | 40432 ft | 471 kts | 200° |
| 2026-04-08 00:22 | 43.34894 | -85.32334 | 40193 ft | 471 kts | 200° |
| 2026-04-08 00:22 | 43.31727 | -85.33321 | 39954 ft | 470 kts | 200° |
| 2026-04-08 00:23 | 43.28525 | -85.34318 | 39718 ft | 470 kts | 200° |
| 2026-04-08 00:23 | 43.25333 | -85.35311 | 39451 ft | 467 kts | 200° |
| 2026-04-08 00:23 | 43.22177 | -85.36287 | 39134 ft | 461 kts | 201° |
| 2026-04-08 00:23 | 43.19056 | -85.37253 | 38591 ft | 458 kts | 201° |
| 2026-04-08 00:24 | 43.15933 | -85.38220 | 38060 ft | 456 kts | 201° |
| 2026-04-08 00:24 | 43.12878 | -85.39165 | 37523 ft | 454 kts | 201° |
| 2026-04-08 00:24 | 43.09788 | -85.40120 | 36962 ft | 453 kts | 201° |
| 2026-04-08 00:24 | 43.06705 | -85.41074 | 36404 ft | 453 kts | 201° |
| 2026-04-08 00:25 | 43.03658 | -85.42016 | 35862 ft | 452 kts | 202° |
| 2026-04-08 00:25 | 43.00582 | -85.42966 | 35324 ft | 452 kts | 202° |
| 2026-04-08 00:25 | 42.97482 | -85.43923 | 34774 ft | 452 kts | 202° |
| 2026-04-08 00:25 | 42.94446 | -85.44859 | 34188 ft | 452 kts | 202° |
| 2026-04-08 00:26 | 42.91376 | -85.45807 | 33602 ft | 451 kts | 202° |
| 2026-04-08 00:26 | 42.88320 | -85.46839 | 32991 ft | 444 kts | 207° |
| 2026-04-08 00:26 | 42.85496 | -85.48413 | 32415 ft | 432 kts | 217° |
| 2026-04-08 00:26 | 42.82967 | -85.50544 | 31840 ft | 420 kts | 225° |
| 2026-04-08 00:27 | 42.80789 | -85.53114 | 31296 ft | 409 kts | 234° |
| 2026-04-08 00:27 | 42.78960 | -85.56050 | 30686 ft | 402 kts | 242° |
| 2026-04-08 00:27 | 42.77510 | -85.59248 | 29989 ft | 395 kts | 249° |
| 2026-04-08 00:27 | 42.76430 | -85.62660 | 29313 ft | 390 kts | 257° |
| 2026-04-08 00:28 | 42.75693 | -85.66201 | 28682 ft | 386 kts | 261° |
| 2026-04-08 00:28 | 42.75050 | -85.69775 | 28008 ft | 387 kts | 261° |
| 2026-04-08 00:28 | 42.74414 | -85.73366 | 27337 ft | 388 kts | 261° |
| 2026-04-08 00:28 | 42.73777 | -85.76935 | 26940 ft | 396 kts | 261° |
| 2026-04-08 00:29 | 42.73113 | -85.80614 | 26495 ft | 394 kts | 261° |
| 2026-04-08 00:29 | 42.72458 | -85.84220 | 26053 ft | 391 kts | 261° |
| 2026-04-08 00:29 | 42.71807 | -85.87801 | 25600 ft | 388 kts | 261° |
| 2026-04-08 00:29 | 42.71159 | -85.91359 | 25155 ft | 384 kts | 261° |
| 2026-04-08 00:30 | 42.70515 | -85.94889 | 24702 ft | 381 kts | 261° |
| 2026-04-08 00:30 | 42.69883 | -85.98341 | 24267 ft | 378 kts | 260° |
| 2026-04-08 00:30 | 42.69245 | -86.01825 | 23773 ft | 376 kts | 260° |
| 2026-04-08 00:30 | 42.68612 | -86.05273 | 23292 ft | 372 kts | 260° |
| 2026-04-08 00:31 | 42.67987 | -86.08675 | 22832 ft | 369 kts | 260° |
| 2026-04-08 00:31 | 42.67372 | -86.12014 | 22395 ft | 368 kts | 260° |
| 2026-04-08 00:31 | 42.66735 | -86.15493 | 22107 ft | 385 kts | 260° |
| 2026-04-08 00:31 | 42.66074 | -86.19080 | 21842 ft | 388 kts | 259° |
| 2026-04-08 00:32 | 42.65411 | -86.22646 | 21577 ft | 388 kts | 259° |
| 2026-04-08 00:32 | 42.64747 | -86.26216 | 21315 ft | 387 kts | 259° |
| 2026-04-08 00:32 | 42.64088 | -86.29757 | 21036 ft | 383 kts | 259° |
| 2026-04-08 00:32 | 42.63435 | -86.33257 | 20410 ft | 380 kts | 259° |
| 2026-04-08 00:33 | 42.62790 | -86.36718 | 20170 ft | 379 kts | 259° |
| 2026-04-08 00:33 | 42.62139 | -86.40205 | 20098 ft | 381 kts | 259° |
| 2026-04-08 00:33 | 42.61485 | -86.43700 | 19627 ft | 379 kts | 259° |
| 2026-04-08 00:33 | 42.60833 | -86.47179 | 19176 ft | 375 kts | 259° |
| 2026-04-08 00:34 | 42.60185 | -86.50628 | 18698 ft | 372 kts | 259° |
| 2026-04-08 00:34 | 42.59547 | -86.54019 | 18198 ft | 368 kts | 259° |
| 2026-04-08 00:34 | 42.58921 | -86.57340 | 17727 ft | 365 kts | 259° |
| 2026-04-08 00:34 | 42.58292 | -86.60671 | 17260 ft | 362 kts | 259° |
| 2026-04-08 00:35 | 42.57667 | -86.63972 | 16802 ft | 359 kts | 259° |
| 2026-04-08 00:35 | 42.57046 | -86.67252 | 16348 ft | 356 kts | 259° |
| 2026-04-08 00:35 | 42.56638 | -86.69404 | 16033 ft | 354 kts | 259° |
| 2026-04-08 00:35 | 42.55705 | -86.73651 | 15447 ft | 352 kts | 255° |
| 2026-04-08 00:36 | 42.54877 | -86.76779 | 14996 ft | 351 kts | 253° |
| 2026-04-08 00:36 | 42.54038 | -86.79889 | 14562 ft | 349 kts | 253° |
| 2026-04-08 00:36 | 42.53484 | -86.81937 | 14267 ft | 348 kts | 253° |
| 2026-04-08 00:36 | 42.52646 | -86.85036 | 13776 ft | 346 kts | 253° |
| 2026-04-08 00:37 | 42.51825 | -86.88071 | 13324 ft | 344 kts | 253° |
| 2026-04-08 00:37 | 42.50991 | -86.91149 | 12877 ft | 341 kts | 252° |
| 2026-04-08 00:37 | 42.50169 | -86.94174 | 12462 ft | 338 kts | 252° |
| 2026-04-08 00:37 | 42.49360 | -86.97148 | 12035 ft | 332 kts | 252° |
| 2026-04-08 00:38 | 42.48582 | -87.00002 | 11624 ft | 327 kts | 252° |
| 2026-04-08 00:38 | 42.47787 | -87.02917 | 11192 ft | 323 kts | 252° |
| 2026-04-08 00:38 | 42.47011 | -87.05757 | 10834 ft | 317 kts | 251° |
| 2026-04-08 00:38 | 42.46261 | -87.08494 | 10744 ft | 303 kts | 251° |
| 2026-04-08 00:39 | 42.45534 | -87.11146 | 10626 ft | 291 kts | 251° |
| 2026-04-08 00:39 | 42.44847 | -87.13652 | 10423 ft | 282 kts | 251° |
| 2026-04-08 00:39 | 42.44172 | -87.16118 | 10147 ft | 276 kts | 251° |
| 2026-04-08 00:39 | 42.43509 | -87.18539 | 9874 ft | 270 kts | 251° |
| 2026-04-08 00:40 | 42.42856 | -87.20923 | 9592 ft | 269 kts | 251° |
| 2026-04-08 00:40 | 42.42211 | -87.23275 | 9336 ft | 268 kts | 251° |
| 2026-04-08 00:40 | 42.41555 | -87.25660 | 9090 ft | 267 kts | 250° |
| 2026-04-08 00:40 | 42.40904 | -87.28020 | 9058 ft | 268 kts | 250° |
| 2026-04-08 00:41 | 42.40243 | -87.30413 | 9054 ft | 268 kts | 250° |
| 2026-04-08 00:41 | 42.39586 | -87.32795 | 9053 ft | 268 kts | 250° |
| 2026-04-08 00:41 | 42.38941 | -87.35129 | 9051 ft | 268 kts | 250° |
| 2026-04-08 00:41 | 42.38283 | -87.37507 | 9054 ft | 268 kts | 250° |
| 2026-04-08 00:42 | 42.37628 | -87.39875 | 9049 ft | 268 kts | 250° |
| 2026-04-08 00:42 | 42.36971 | -87.42245 | 9047 ft | 268 kts | 250° |
| 2026-04-08 00:42 | 42.36314 | -87.44616 | 9046 ft | 268 kts | 250° |
| 2026-04-08 00:42 | 42.35664 | -87.46955 | 9043 ft | 268 kts | 250° |
| 2026-04-08 00:43 | 42.35008 | -87.49316 | 9044 ft | 268 kts | 250° |
| 2026-04-08 00:43 | 42.34339 | -87.51675 | 9037 ft | 268 kts | 246° |
| 2026-04-08 00:43 | 42.33336 | -87.53820 | 9030 ft | 270 kts | 231° |
| 2026-04-08 00:43 | 42.31964 | -87.55533 | 9040 ft | 272 kts | 221° |
| 2026-04-08 00:44 | 42.30472 | -87.57109 | 9038 ft | 272 kts | 220° |
| 2026-04-08 00:44 | 42.28965 | -87.58672 | 9035 ft | 272 kts | 220° |
| 2026-04-08 00:44 | 42.27458 | -87.60247 | 9036 ft | 272 kts | 220° |
| 2026-04-08 00:44 | 42.25961 | -87.61819 | 9033 ft | 272 kts | 220° |
| 2026-04-08 00:45 | 42.24450 | -87.63404 | 9034 ft | 272 kts | 220° |
| 2026-04-08 00:45 | 42.22963 | -87.64963 | 9031 ft | 272 kts | 220° |
| 2026-04-08 00:45 | 42.21446 | -87.66556 | 9033 ft | 272 kts | 220° |
| 2026-04-08 00:45 | 42.20029 | -87.68043 | 9033 ft | 272 kts | 220° |
| 2026-04-08 00:46 | 42.18517 | -87.69496 | 9027 ft | 260 kts | 212° |
| 2026-04-08 00:46 | 42.16892 | -87.70503 | 8873 ft | 253 kts | 202° |
| 2026-04-08 00:46 | 42.15214 | -87.71231 | 8550 ft | 252 kts | 199° |
| 2026-04-08 00:46 | 42.13552 | -87.71897 | 8215 ft | 251 kts | 199° |
| 2026-04-08 00:47 | 42.11873 | -87.72571 | 7889 ft | 248 kts | 199° |
| 2026-04-08 00:47 | 42.10216 | -87.73246 | 7648 ft | 247 kts | 199° |
| 2026-04-08 00:47 | 42.08586 | -87.73919 | 7398 ft | 246 kts | 199° |
| 2026-04-08 00:47 | 42.06956 | -87.74601 | 7146 ft | 244 kts | 199° |
| 2026-04-08 00:48 | 42.05345 | -87.75344 | 6888 ft | 242 kts | 207° |
| 2026-04-08 00:48 | 42.03909 | -87.76514 | 6610 ft | 240 kts | 214° |
| 2026-04-08 00:48 | 42.02516 | -87.77826 | 6331 ft | 239 kts | 215° |
| 2026-04-08 00:48 | 42.01178 | -87.79129 | 6079 ft | 237 kts | 216° |
| 2026-04-08 00:49 | 41.99848 | -87.80442 | 5923 ft | 237 kts | 216° |
| 2026-04-08 00:49 | 41.98597 | -87.81918 | 5763 ft | 237 kts | 224° |
| 2026-04-08 00:49 | 41.97437 | -87.83534 | 5597 ft | 236 kts | 225° |
| 2026-04-08 00:49 | 41.96296 | -87.85179 | 5443 ft | 236 kts | 226° |
| 2026-04-08 00:50 | 41.95185 | -87.86795 | 5296 ft | 235 kts | 226° |
| 2026-04-08 00:50 | 41.94073 | -87.88425 | 5140 ft | 234 kts | 226° |
| 2026-04-08 00:50 | 41.93157 | -87.90191 | 4939 ft | 234 kts | 246° |
| 2026-04-08 00:50 | 41.92701 | -87.92261 | 4787 ft | 228 kts | 254° |
| 2026-04-08 00:51 | 41.92361 | -87.94356 | 4619 ft | 227 kts | 256° |
| 2026-04-08 00:51 | 41.92174 | -87.96474 | 4473 ft | 228 kts | 264° |
| 2026-04-08 00:51 | 41.92113 | -87.98621 | 4316 ft | 228 kts | 265° |
| 2026-04-08 00:51 | 41.92080 | -88.00760 | 4159 ft | 228 kts | 266° |
| 2026-04-08 00:52 | 41.92052 | -88.02893 | 4006 ft | 224 kts | 266° |
| 2026-04-08 00:52 | 41.92031 | -88.04955 | 3831 ft | 218 kts | 266° |
| 2026-04-08 00:52 | 41.92015 | -88.07001 | 3679 ft | 217 kts | 266° |
| 2026-04-08 00:52 | 41.92004 | -88.09027 | 3408 ft | 216 kts | 268° |
| 2026-04-08 00:53 | 41.92384 | -88.10984 | 3071 ft | 223 kts | 302° |
| 2026-04-08 00:53 | 41.93539 | -88.12316 | 2973 ft | 218 kts | 339° |
| 2026-04-08 00:53 | 41.95016 | -88.12507 | 2971 ft | 213 kts | 17° |
| 2026-04-08 00:53 | 41.96267 | -88.11534 | 2981 ft | 204 kts | 54° |
| 2026-04-08 00:54 | 41.96789 | -88.09896 | 2954 ft | 181 kts | 91° |
| 2026-04-08 00:54 | 41.96738 | -88.08262 | 2994 ft | 175 kts | 99° |
| 2026-04-08 00:54 | 41.96624 | -88.06618 | 2801 ft | 177 kts | 97° |
| 2026-04-08 00:54 | 41.96564 | -88.04984 | 2583 ft | 170 kts | 95° |
| 2026-04-08 00:55 | 41.96554 | -88.03419 | 2332 ft | 160 kts | 93° |
| 2026-04-08 00:55 | 41.96558 | -88.01958 | 2065 ft | 148 kts | 92° |
| 2026-04-08 00:55 | 41.96563 | -88.00698 | 1863 ft | 139 kts | 93° |
| 2026-04-08 00:55 | 41.96563 | -87.99396 | 1665 ft | 138 kts | 92° |
| 2026-04-08 00:56 | 41.96563 | -87.98093 | 1458 ft | 137 kts | 91° |
| 2026-04-08 00:56 | 41.96561 | -87.96822 | 1247 ft | 137 kts | 90° |
| 2026-04-08 00:56 | 41.96563 | -87.95533 | 1048 ft | 136 kts | 90° |
| 2026-04-08 00:56 | 41.96564 | -87.94256 | 891 ft | 135 kts | 90° |
| 2026-04-08 00:57 | 41.96570 | -87.92996 | 723 ft | 134 kts | 89° |
| 2026-04-08 00:57 | 41.96572 | -87.91856 | 676 ft | 94 kts | 90° |
| 2026-04-08 00:57 | 41.96574 | -87.91204 | 677 ft | 50 kts | 90° |
| 2026-04-08 00:57 | 41.96574 | -87.90821 | 677 ft | 37 kts | 90° |
| 2026-04-08 00:58 | 41.96612 | -87.90510 | 678 ft | 28 kts | 69° |
| 2026-04-08 00:58 | 41.96676 | -87.90345 | 677 ft | 15 kts | 59° |
| 2026-04-08 00:58 | 41.96732 | -87.90205 | 677 ft | 19 kts | 70° |
| 2026-04-08 00:58 | 41.96740 | -87.90020 | 677 ft | 18 kts | 90° |
| 2026-04-08 00:59 | 41.96741 | -87.89848 | 678 ft | 20 kts | 90° |
| 2026-04-08 00:59 | 41.96741 | -87.89672 | 678 ft | 19 kts | 90° |
| 2026-04-08 00:59 | 41.96741 | -87.89471 | 678 ft | 23 kts | 90° |
| 2026-04-08 00:59 | 41.96742 | -87.89268 | 677 ft | 21 kts | 90° |
| 2026-04-08 01:00 | 41.96786 | -87.89166 | 677 ft | 14 kts | 334° |
| 2026-04-08 01:00 | 41.96770 | -87.89202 | 675 ft | 9 kts | 133° |
| 2026-04-08 01:00 | 41.96740 | -87.89107 | 674 ft | 13 kts | 105° |
| 2026-04-08 01:00 | 41.96738 | -87.88973 | 677 ft | 16 kts | 82° |
| 2026-04-08 01:01 | 41.96742 | -87.88824 | 677 ft | 17 kts | 89° |
| 2026-04-08 01:01 | 41.96742 | -87.88675 | 677 ft | 17 kts | 90° |
| 2026-04-08 01:01 | 41.96800 | -87.88553 | 676 ft | 17 kts | 27° |
| 2026-04-08 01:01 | 41.96914 | -87.88481 | 675 ft | 19 kts | 16° |
| 2026-04-08 01:02 | 41.97053 | -87.88444 | 677 ft | 22 kts | 3° |
| 2026-04-08 01:02 | 41.97179 | -87.88477 | 678 ft | 17 kts | 310° |
| 2026-04-08 01:02 | 41.97194 | -87.88592 | 677 ft | 12 kts | 274° |
| 2026-04-08 01:02 | 41.97217 | -87.88646 | 677 ft | 6 kts | 332° |
| 2026-04-08 01:03 | 41.97267 | -87.88681 | 676 ft | 10 kts | 325° |
| 2026-04-08 01:03 | 41.97283 | -87.88768 | 678 ft | 12 kts | 262° |
| 2026-04-08 01:03 | 41.97268 | -87.89035 | 677 ft | 12 kts | 270° |
| 2026-04-08 01:04 | 41.97267 | -87.89134 | 677 ft | 6 kts | 270° |
| 2026-04-08 01:04 | 41.97267 | -87.89210 | 677 ft | 10 kts | 270° |
| 2026-04-08 01:04 | 41.97267 | -87.89233 | 677 ft | 0 kts | 279° |
| 2026-04-08 01:04 | 41.97268 | -87.89234 | 677 ft | 0 kts | 292° |
| 2026-04-08 01:05 | 41.97274 | -87.89243 | 677 ft | 4 kts | 329° |
| 2026-04-08 01:05 | 41.97302 | -87.89227 | 677 ft | 6 kts | 48° |
| 2026-04-08 01:05 | 41.97329 | -87.89192 | 677 ft | 4 kts | 39° |
| 2026-04-08 01:05 | 41.97334 | -87.89186 | 677 ft | 2 kts | 39° |
| 2026-04-08 01:06 | 41.97341 | -87.89180 | 676 ft | 0 kts | 39° |